M I D A S
Marine Information and Data Acquisition System
Tripno 695 of the Zeeleeuw from 2004-04-15 06:10:35 to 2004-04-15 15:07:12
Back to CruiseResearch ActivitiesStationsMapUnderway DataData graphs

EquipmentUnitsComment
TimeDGPSUTC
LatitudeDGPSDM.mWGS84
LongitudeDGPSDM.mWGS84
TemperatureSBE03/SBE38deg celciusITS90
ConductivitySBE21S/mITS90
SalinitySBE21 Practical Salinity Units
ChlorophylAChelsea fluorimeterg/lCalibrated in Aceton
Missing or incorrect values are displayed as -999
Sea surface data collected by the RV Zeeleeuw from 2004-04-15 06:10:35 to 2004-04-15 15:07:12
                                                                                    Next 1000 lines
Time Latitude Longitude Temperature Conductivity Salinity ChlorophylA
2004-04-15 06:10:42 51°13.597 2°56.1 16.188515 3.921072 27.9981 0.432289
2004-04-15 06:10:46 51°13.597 2°56.1 16.188899 3.921072 27.9981 0.39858
2004-04-15 06:10:52 51°13.597 2°56.1 16.189412 3.921072 27.997632 0.39858
2004-04-15 06:10:56 51°13.597 2°56.1 16.189797 3.921072 27.9981 0.39858
2004-04-15 06:11:01 51°13.597 2°56.1 16.190225 3.921072 27.997632 0.39858
2004-04-15 06:11:06 51°13.596 2°56.1 16.190695 3.921072 27.997164 0.39858
2004-04-15 06:11:11 51°13.596 2°56.1 16.190695 3.921072 27.997164 0.39858
2004-04-15 06:11:16 51°13.596 2°56.1 16.191336 3.921177 27.998 0.39858
2004-04-15 06:11:22 51°13.596 2°56.1 16.191721 3.921177 27.997063 0.39858
2004-04-15 06:11:26 51°13.596 2°56.099 16.192148 3.921177 27.997063 0.39858
2004-04-15 06:11:31 51°13.596 2°56.097 16.192747 3.918542 27.976616 0.432289
2004-04-15 06:11:36 51°13.597 2°56.095 16.193645 3.919912 27.987024 0.39858
2004-04-15 06:11:41 51°13.597 2°56.092 16.193645 3.919912 27.987024 0.39858
2004-04-15 06:11:46 51°13.598 2°56.088 16.194371 3.920123 27.988229 0.364871
2004-04-15 06:11:52 51°13.599 2°56.083 16.195226 3.920545 27.991575 0.39858
2004-04-15 06:11:56 51°13.6 2°56.078 16.195782 3.92065 27.991944 0.432289
2004-04-15 06:12:02 51°13.602 2°56.071 16.196466 3.920861 27.993617 0.39858
2004-04-15 06:12:07 51°13.604 2°56.065 16.197363 3.920861 27.993617 0.39858
2004-04-15 06:12:12 51°13.606 2°56.058 16.197363 3.920861 27.993617 0.39858
2004-04-15 06:12:17 51°13.607 2°56.051 16.198603 3.920967 27.994453 0.39858
2004-04-15 06:12:22 51°13.609 2°56.044 16.200185 3.921072 27.995758 0.39858
2004-04-15 06:12:27 51°13.611 2°56.036 16.201894 3.921177 27.996127 0.39858
2004-04-15 06:12:32 51°13.613 2°56.028 16.203091 3.921072 27.99529 0.432289
2004-04-15 06:12:37 51°13.615 2°56.02 16.204245 3.921283 27.995558 0.39858
2004-04-15 06:12:42 51°13.617 2°56.012 16.204245 3.921283 27.995558 0.39858
2004-04-15 06:12:47 51°13.62 2°56.003 16.204929 3.921388 27.996863 0.39858
2004-04-15 06:12:52 51°13.622 2°55.995 16.205014 3.921388 27.996395 0.39858
2004-04-15 06:12:57 51°13.625 2°55.986 16.204801 3.921494 27.997232 0.39858
2004-04-15 06:13:02 51°13.627 2°55.976 16.204544 3.921494 27.997232 0.39858
2004-04-15 06:13:07 51°13.63 2°55.967 16.204416 3.921494 27.996763 0.39858
2004-04-15 06:13:12 51°13.633 2°55.957 16.204416 3.921494 27.996763 0.39858
2004-04-15 06:13:17 51°13.636 2°55.948 16.204544 3.921494 27.996763 0.39858
2004-04-15 06:13:22 51°13.639 2°55.938 16.205869 3.921599 27.997131 0.39858
2004-04-15 06:13:27 51°13.642 2°55.929 16.207151 3.921599 27.996663 0.39858
2004-04-15 06:13:32 51°13.646 2°55.919 16.208348 3.921704 27.997968 0.39858
2004-04-15 06:13:37 51°13.649 2°55.91 16.209288 3.921704 27.997031 0.39858
2004-04-15 06:13:42 51°13.652 2°55.901 16.209288 3.921704 27.997031 0.39858
2004-04-15 06:13:47 51°13.656 2°55.891 16.210058 3.921704 27.997031 0.39858
2004-04-15 06:13:52 51°13.659 2°55.881 16.210485 3.92181 27.997868 0.39858
2004-04-15 06:13:57 51°13.662 2°55.872 16.210912 3.92181 27.997868 0.39858
2004-04-15 06:14:02 51°13.665 2°55.862 16.211212 3.92181 27.9974 0.39858
2004-04-15 06:14:07 51°13.668 2°55.852 16.211297 3.92181 27.996931 0.39858
2004-04-15 06:14:12 51°13.67 2°55.841 16.211297 3.92181 27.996931 0.39858
2004-04-15 06:14:17 51°13.672 2°55.831 16.211511 3.92181 27.996463 0.39858
2004-04-15 06:14:23 51°13.674 2°55.818 16.21181 3.92181 27.996463 0.39858
2004-04-15 06:14:27 51°13.675 2°55.809 16.212066 3.921915 27.9973 0.39858
2004-04-15 06:14:32 51°13.676 2°55.798 16.212408 3.921915 27.996831 0.39858
2004-04-15 06:14:37 51°13.677 2°55.787 16.21228 3.922021 27.997668 0.39858
2004-04-15 06:14:42 51°13.678 2°55.777 16.21228 3.922021 27.997668 0.39858
2004-04-15 06:14:47 51°13.678 2°55.767 16.211895 3.922021 27.9972 0.364871
2004-04-15 06:14:52 51°13.679 2°55.759 16.211596 3.922126 27.997568 0.39858
2004-04-15 06:14:57 51°13.679 2°55.752 16.21228 3.922126 27.996631 0.39858
2004-04-15 06:15:01 51°13.679 2°55.748 16.212579 3.922126 27.996631 0.39858
2004-04-15 06:15:06 51°13.679 2°55.745 16.213092 3.922126 27.995227 0.39858
2004-04-15 06:15:11 51°13.679 2°55.743 16.213092 3.922126 27.995227 0.39858
2004-04-15 06:15:16 51°13.68 2°55.742 16.213519 3.922126 27.995695 0.39858
2004-04-15 06:15:20 51°13.68 2°55.742 16.213947 3.922126 27.996163 0.39858
2004-04-15 06:15:26 51°13.681 2°55.743 16.213733 3.922126 27.996163 0.39858
2004-04-15 06:15:31 51°13.682 2°55.745 16.213348 3.922231 27.997936 0.39858
2004-04-15 06:15:36 51°13.684 2°55.747 16.213092 3.922231 27.997936 0.39858
2004-04-15 06:15:42 51°13.686 2°55.75 16.213092 3.922231 27.997936 0.39858
2004-04-15 06:15:46 51°13.688 2°55.752 16.21322 3.922337 27.999241 0.39858
2004-04-15 06:15:51 51°13.691 2°55.754 16.213306 3.922337 27.998304 0.39858
2004-04-15 06:15:56 51°13.695 2°55.756 16.213306 3.922442 27.998672 0.39858
2004-04-15 06:16:02 51°13.699 2°55.759 16.21322 3.922442 27.997736 0.364871
2004-04-15 06:16:06 51°13.703 2°55.76 16.21322 3.922337 27.996431 0.39858
2004-04-15 06:16:12 51°13.708 2°55.761 16.21322 3.922337 27.996431 0.39858
2004-04-15 06:16:16 51°13.712 2°55.762 16.213348 3.922442 27.9968 0.39858
2004-04-15 06:16:21 51°13.716 2°55.762 16.213348 3.922548 27.997168 0.39858
2004-04-15 06:16:26 51°13.721 2°55.761 16.213434 3.922548 27.997636 0.39858
2004-04-15 06:16:31 51°13.724 2°55.761 16.215015 3.922442 27.9968 0.39858
2004-04-15 06:16:36 51°13.727 2°55.761 16.21322 3.922548 27.997636 0.39858
2004-04-15 06:16:41 51°13.728 2°55.761 16.21322 3.922548 27.997636 0.39858
2004-04-15 06:16:46 51°13.729 2°55.762 16.216425 3.922548 27.997636 0.364871
2004-04-15 06:16:51 51°13.728 2°55.763 16.216212 3.922548 27.997168 0.364871
2004-04-15 06:16:56 51°13.728 2°55.765 16.216126 3.922653 27.997536 0.432289
2004-04-15 06:17:01 51°13.726 2°55.766 16.215186 3.922548 27.997168 0.39858
2004-04-15 06:17:07 51°13.725 2°55.768 16.21369 3.922653 27.997068 0.364871
2004-04-15 06:17:12 51°13.725 2°55.769 16.212878 3.922653 27.996132 0.432289
2004-04-15 06:17:17 51°13.725 2°55.77 16.212878 3.922653 27.996132 0.432289
2004-04-15 06:17:22 51°13.726 2°55.769 16.212494 3.922653 27.996132 0.39858
2004-04-15 06:17:27 51°13.728 2°55.767 16.214716 3.922758 27.9965 0.39858
2004-04-15 06:17:32 51°13.732 2°55.763 16.214887 3.922758 27.997436 0.39858
2004-04-15 06:17:36 51°13.734 2°55.759 16.215656 3.922548 27.996232 0.39858
2004-04-15 06:17:42 51°13.74 2°55.75 16.215656 3.922548 27.996232 0.39858
2004-04-15 06:17:47 51°13.745 2°55.742 16.21634 3.922758 27.996968 0.39858
2004-04-15 06:17:51 51°13.75 2°55.734 16.21634 3.922758 27.994628 0.39858
2004-04-15 06:17:56 51°13.756 2°55.725 16.215998 3.922864 27.995464 0.39858
2004-04-15 06:18:01 51°13.763 2°55.715 16.215314 3.922864 27.995464 0.39858
2004-04-15 06:18:06 51°13.769 2°55.705 16.214887 3.922864 27.995932 0.364871
2004-04-15 06:18:11 51°13.776 2°55.695 16.214887 3.922864 27.995932 0.364871
2004-04-15 06:18:16 51°13.782 2°55.686 16.214588 3.922864 27.9964 0.39858
2004-04-15 06:18:21 51°13.789 2°55.676 16.214417 3.922864 27.996868 0.39858
2004-04-15 06:18:26 51°13.797 2°55.667 16.214331 3.922969 27.997704 0.39858
2004-04-15 06:18:32 51°13.806 2°55.656 16.214331 3.922969 27.997704 0.364871
2004-04-15 06:18:36 51°13.812 2°55.65 16.214417 3.922969 27.996768 0.39858
2004-04-15 06:18:41 51°13.82 2°55.641 16.21463 3.923075 27.998073 0.39858
2004-04-15 06:18:46 51°13.828 2°55.634 16.21463 3.923075 27.998073 0.39858
2004-04-15 06:18:51 51°13.837 2°55.627 16.21493 3.922969 27.997236 0.364871
2004-04-15 06:18:56 51°13.846 2°55.621 16.2154 3.922969 27.997704 0.364871
2004-04-15 06:19:02 51°13.856 2°55.614 16.215741 3.922969 27.998172 0.364871
2004-04-15 06:19:06 51°13.864 2°55.609 16.216169 3.923075 27.998541 0.39858
2004-04-15 06:19:11 51°13.873 2°55.602 16.216169 3.923075 27.998541 0.39858
2004-04-15 06:19:16 51°13.882 2°55.596 16.216724 3.922969 27.997704 0.39858
2004-04-15 06:19:22 51°13.894 2°55.59 16.217323 3.923075 27.997604 0.39858
2004-04-15 06:19:26 51°13.901 2°55.585 16.217835 3.92318 27.997973 0.364871
2004-04-15 06:19:31 51°13.911 2°55.578 16.218434 3.923075 27.997136 0.39858
2004-04-15 06:19:36 51°13.92 2°55.572 16.218861 3.92318 27.997973 0.364871
2004-04-15 06:19:41 51°13.93 2°55.566 16.218861 3.92318 27.997973 0.364871
2004-04-15 06:19:46 51°13.94 2°55.56 16.219459 3.92318 27.997505 0.364871
2004-04-15 06:19:51 51°13.949 2°55.554 16.219972 3.92318 27.997036 0.39858
2004-04-15 06:19:56 51°13.959 2°55.548 16.220442 3.923285 27.997405 0.39858
2004-04-15 06:20:02 51°13.971 2°55.542 16.220912 3.92318 27.995632 0.39858
2004-04-15 06:20:06 51°13.979 2°55.537 16.221468 3.923285 27.996937 0.364871
2004-04-15 06:20:11 51°13.989 2°55.531 16.22198 3.92318 27.995632 0.39858
2004-04-15 06:20:16 51°13.998 2°55.525 16.22198 3.92318 27.995632 0.39858
2004-04-15 06:20:22 51°14.01 2°55.518 16.222322 3.923391 27.996837 0.39858
2004-04-15 06:20:26 51°14.018 2°55.513 16.222792 3.923285 27.996469 0.39858
2004-04-15 06:20:31 51°14.028 2°55.506 16.223305 3.923391 27.997305 0.39858
2004-04-15 06:20:36 51°14.038 2°55.5 16.223647 3.923391 27.996837 0.364871
2004-04-15 06:20:40 51°14.046 2°55.495 16.223647 3.923391 27.996837 0.364871
2004-04-15 06:20:46 51°14.057 2°55.487 16.224031 3.923391 27.996369 0.364871
2004-04-15 06:20:51 51°14.067 2°55.48 16.224459 3.923496 27.996737 0.364871
2004-04-15 06:20:57 51°14.08 2°55.472 16.2251 3.923285 27.994129 0.364871
2004-04-15 06:21:01 51°14.088 2°55.467 16.226125 3.923391 27.994965 0.364871
2004-04-15 06:21:05 51°14.097 2°55.461 16.227193 3.923496 27.995801 0.364871
2004-04-15 06:21:11 51°14.11 2°55.452 16.227919 3.923496 27.995801 0.39858
2004-04-15 06:21:16 51°14.121 2°55.444 16.227919 3.923496 27.995801 0.39858
2004-04-15 06:21:22 51°14.134 2°55.434 16.228689 3.923496 27.995801 0.39858
2004-04-15 06:21:26 51°14.143 2°55.428 16.229287 3.923496 27.995333 0.364871
2004-04-15 06:21:31 51°14.154 2°55.419 16.229757 3.923601 27.996169 0.364871
2004-04-15 06:21:36 51°14.165 2°55.41 16.230227 3.923707 27.996537 0.39858
2004-04-15 06:21:41 51°14.176 2°55.4 16.230782 3.923707 27.997005 0.364871
2004-04-15 06:21:46 51°14.187 2°55.389 16.230782 3.923707 27.997005 0.364871
2004-04-15 06:21:51 51°14.198 2°55.377 16.231893 3.923601 27.995701 0.364871
2004-04-15 06:21:56 51°14.209 2°55.364 16.232918 3.923707 27.996069 0.39858
2004-04-15 06:22:02 51°14.222 2°55.347 16.233687 3.923707 27.996069 0.39858
2004-04-15 06:22:07 51°14.233 2°55.332 16.234499 3.923812 27.995969 0.364871
2004-04-15 06:22:11 51°14.241 2°55.319 16.234499 3.923812 27.995969 0.364871
2004-04-15 06:22:16 51°14.252 2°55.303 16.235396 3.923707 27.995133 0.39858
2004-04-15 06:22:21 51°14.263 2°55.286 16.23608 3.923812 27.995034 0.39858
2004-04-15 06:22:26 51°14.273 2°55.268 16.236934 3.923812 27.995502 0.364871
2004-04-15 06:22:31 51°14.282 2°55.249 16.238002 3.923812 27.995502 0.364871
2004-04-15 06:22:36 51°14.292 2°55.229 16.2386 3.923918 27.996806 0.39858
2004-04-15 06:22:42 51°14.303 2°55.205 16.238899 3.923812 27.994566 0.364871
2004-04-15 06:22:46 51°14.311 2°55.188 16.238899 3.923812 27.994566 0.364871
2004-04-15 06:22:51 51°14.32 2°55.167 16.239198 3.924023 27.996238 0.364871
2004-04-15 06:22:56 51°14.329 2°55.145 16.240224 3.923918 27.995402 0.364871
2004-04-15 06:23:01 51°14.338 2°55.122 16.240822 3.923918 27.994934 0.39858
2004-04-15 06:23:06 51°14.346 2°55.1 16.241932 3.924023 27.995302 0.39858
2004-04-15 06:23:11 51°14.356 2°55.077 16.241932 3.924023 27.995302 0.39858
2004-04-15 06:23:16 51°14.365 2°55.055 16.242359 3.924023 27.994834 0.364871
2004-04-15 06:23:21 51°14.374 2°55.031 16.243043 3.924128 27.995202 0.39858
2004-04-15 06:23:26 51°14.384 2°55.008 16.241761 3.924128 27.99567 0.39858
2004-04-15 06:23:31 51°14.394 2°54.983 16.242616 3.924023 27.994366 0.39858
2004-04-15 06:23:36 51°14.403 2°54.959 16.244025 3.924128 27.994735 0.364871
2004-04-15 06:23:42 51°14.414 2°54.928 16.244837 3.924234 27.996506 0.39858
2004-04-15 06:23:46 51°14.421 2°54.907 16.244837 3.924234 27.996506 0.39858
2004-04-15 06:23:51 51°14.431 2°54.882 16.244965 3.924234 27.995571 0.364871
2004-04-15 06:23:56 51°14.44 2°54.856 16.245051 3.924234 27.995571 0.364871
2004-04-15 06:24:02 51°14.451 2°54.824 16.244965 3.924234 27.995103 0.364871
2004-04-15 06:24:06 51°14.459 2°54.803 16.245179 3.924234 27.995103 0.364871
2004-04-15 06:24:11 51°14.468 2°54.777 16.24535 3.924339 27.995939 0.364871
2004-04-15 06:24:16 51°14.477 2°54.75 16.24535 3.924339 27.995939 0.364871
2004-04-15 06:24:22 51°14.488 2°54.718 16.245734 3.924339 27.995939 0.364871
2004-04-15 06:24:26 51°14.496 2°54.697 16.246161 3.924339 27.995939 0.364871
2004-04-15 06:24:31 51°14.505 2°54.67 16.24646 3.924445 27.995839 0.364871
2004-04-15 06:24:36 51°14.514 2°54.642 16.246845 3.924339 27.995003 0.364871
2004-04-15 06:24:41 51°14.523 2°54.615 16.2474 3.924339 27.995003 0.364871
2004-04-15 06:24:46 51°14.532 2°54.588 16.2474 3.924339 27.995003 0.364871
2004-04-15 06:24:51 51°14.541 2°54.561 16.248083 3.924445 27.995371 0.39858
2004-04-15 06:24:56 51°14.55 2°54.534 16.248767 3.924445 27.995371 0.364871
2004-04-15 06:25:01 51°14.559 2°54.507 16.249194 3.924445 27.994903 0.364871
2004-04-15 06:25:06 51°14.568 2°54.48 16.249493 3.924445 27.994903 0.364871
2004-04-15 06:25:11 51°14.577 2°54.452 16.249493 3.924445 27.994903 0.364871
2004-04-15 06:25:16 51°14.586 2°54.425 16.249963 3.92455 27.995739 0.364871
2004-04-15 06:25:21 51°14.595 2°54.398 16.250176 3.924445 27.994436 0.364871
2004-04-15 06:25:26 51°14.605 2°54.371 16.250603 3.92455 27.994804 0.364871
2004-04-15 06:25:32 51°14.616 2°54.339 16.251201 3.92455 27.994336 0.364871
2004-04-15 06:25:36 51°14.623 2°54.317 16.251714 3.924655 27.995172 0.364871
2004-04-15 06:25:41 51°14.632 2°54.29 16.251714 3.924655 27.995172 0.364871
2004-04-15 06:25:47 51°14.643 2°54.257 16.252098 3.92455 27.994804 0.364871
2004-04-15 06:25:51 51°14.65 2°54.235 16.252568 3.924655 27.995172 0.364871
2004-04-15 06:25:56 51°14.659 2°54.208 16.253081 3.924655 27.994704 0.364871
2004-04-15 06:26:02 51°14.67 2°54.175 16.25338 3.924761 27.996008 0.364871
2004-04-15 06:26:06 51°14.678 2°54.153 16.39371 3.925077 27.989163 0.364871
2004-04-15 06:26:11 51°14.687 2°54.126 15.492457 3.924764 28.157957 9.601247
2004-04-15 06:26:16 51°14.696 2°54.099 15.492457 3.924764 28.157957 9.601247
2004-04-15 06:26:21 51°14.705 2°54.072 13.320293 3.926449 28.101917 13.241862
2004-04-15 06:26:26 51°14.714 2°54.045 12.059894 4.040071 27.899076 15.230717
2004-04-15 06:26:31 51°14.723 2°54.018 11.242629 4.20908 28.787859 12.297999
2004-04-15 06:26:36 51°14.732 2°53.991 10.793316 4.056756 29.413162 8.82593
2004-04-15 06:26:42 51°14.743 2°53.959 10.793316 4.056756 29.413162 8.82593
2004-04-15 06:26:46 51°14.75 2°53.937 10.492134 3.753628 28.789099 9.466409
2004-04-15 06:26:51 51°14.759 2°53.91 10.177541 3.598118 29.220228 18.938751
2004-04-15 06:26:56 51°14.768 2°53.883 10.06945 3.547348 29.810686 26.085144
2004-04-15 06:27:01 51°14.777 2°53.856 9.996274 3.528709 30.296513 26.86046
2004-04-15 06:27:06 51°14.786 2°53.829 9.926537 3.49437 30.446028 25.006443
2004-04-15 06:27:12 51°14.797 2°53.797 9.926537 3.49437 30.446028 25.006443
2004-04-15 06:27:16 51°14.804 2°53.775 9.916066 3.480469 30.728005 22.849042
2004-04-15 06:27:21 51°14.813 2°53.748 9.917709 3.462667 30.751399 20.995024
2004-04-15 06:27:26 51°14.822 2°53.721 9.859969 3.452346 30.818867 20.523093
2004-04-15 06:27:31 51°14.831 2°53.694 9.877921 3.442234 30.824955 19.950033
2004-04-15 06:27:36 51°14.84 2°53.667 9.823391 3.438443 30.87767 19.781486
2004-04-15 06:27:42 51°14.851 2°53.634 9.823391 3.438443 30.87767 19.781486
2004-04-15 06:27:47 51°14.86 2°53.607 9.826495 3.427488 30.804187 19.511811
2004-04-15 06:27:52 51°14.869 2°53.58 9.792956 3.422537 30.802865 19.680358
2004-04-15 06:27:56 51°14.876 2°53.558 9.768815 3.418008 30.789942 18.837623
2004-04-15 06:28:01 51°14.885 2°53.531 9.78778 3.413373 30.786969 18.938751
2004-04-15 06:28:06 51°14.894 2°53.504 9.741321 3.413374 30.805579 18.669076
2004-04-15 06:28:11 51°14.904 2°53.477 9.741321 3.413374 30.805579 18.669076
2004-04-15 06:28:16 51°14.913 2°53.45 9.72578 3.408318 30.785992 18.028597
2004-04-15 06:28:21 51°14.922 2°53.422 9.73487 3.407159 30.805459 18.197144
2004-04-15 06:28:26 51°14.931 2°53.395 9.713156 3.406211 30.799408 17.556665
2004-04-15 06:28:31 51°14.94 2°53.367 9.712214 3.405896 30.802461 17.961178
2004-04-15 06:28:36 51°14.949 2°53.34 9.701661 3.404105 30.815631 17.657794
2004-04-15 06:28:42 51°14.96 2°53.307 9.701284 3.403789 30.824235 16.916187
2004-04-15 06:28:46 51°14.967 2°53.285 9.701284 3.403789 30.824235 16.916187
2004-04-15 06:28:51 51°14.976 2°53.258 9.687807 3.401893 30.817664 17.556665
2004-04-15 06:28:56 51°14.985 2°53.23 9.680974 3.406739 30.880938 17.489247
2004-04-15 06:29:02 51°14.996 2°53.197 9.675176 3.403684 30.862732 17.792631
2004-04-15 06:29:06 51°15.003 2°53.175 9.674752 3.402421 30.859053 17.792631
2004-04-15 06:29:11 51°15.012 2°53.148 9.674752 3.402421 30.859053 17.792631
2004-04-15 06:29:16 51°15.019 2°53.119 9.650048 3.399998 30.852057 17.185862
2004-04-15 06:29:22 51°15.029 2°53.085 9.669378 3.401051 30.863353 17.28699
2004-04-15 06:29:26 51°15.034 2°53.062 9.661552 3.400841 30.873062 17.421828
2004-04-15 06:29:31 51°15.042 2°53.034 9.657168 3.400209 30.866003 16.815059
2004-04-15 06:29:36 51°15.049 2°53.005 9.650849 3.404528 30.926222 16.680221
2004-04-15 06:29:42 51°15.057 2°52.97 9.653914 3.403053 30.910668 16.882477
2004-04-15 06:29:46 51°15.063 2°52.947 9.653914 3.403053 30.910668 16.882477
2004-04-15 06:29:51 51°15.07 2°52.918 9.643021 3.404949 30.942335 16.410546
2004-04-15 06:29:56 51°15.078 2°52.889 9.624014 3.402527 30.923501 16.983606
2004-04-15 06:30:01 51°15.085 2°52.86 9.619013 3.401579 30.920926 16.410546
2004-04-15 06:30:06 51°15.092 2°52.831 9.623542 3.403791 30.941132 16.275708
2004-04-15 06:30:12 51°15.1 2°52.797 9.623542 3.403791 30.941132 16.275708
2004-04-15 06:30:16 51°15.106 2°52.773 9.617786 3.403054 30.942082 16.343127
2004-04-15 06:30:21 51°15.113 2°52.745 9.619909 3.404318 30.961823 16.579093
2004-04-15 06:30:26 51°15.121 2°52.716 9.605614 3.404739 30.961177 16.241999
2004-04-15 06:30:31 51°15.128 2°52.687 9.600895 3.403159 30.962027 16.275708
2004-04-15 06:30:36 51°15.135 2°52.658 9.598677 3.403897 30.97857 16.073452
2004-04-15 06:30:41 51°15.143 2°52.629 9.598677 3.403897 30.97857 16.073452
2004-04-15 06:30:46 51°15.15 2°52.6 9.606463 3.406109 31.003704 16.241999
2004-04-15 06:30:51 51°15.157 2°52.571 9.58499 3.404423 30.990192 15.972324
2004-04-15 06:30:56 51°15.164 2°52.542 9.582063 3.405582 31.008904 16.545383
2004-04-15 06:31:02 51°15.173 2°52.507 9.582205 3.406425 31.023029 16.612802
2004-04-15 06:31:07 51°15.18 2°52.478 9.579514 3.40653 31.025497 16.680221
2004-04-15 06:31:11 51°15.186 2°52.455 9.579514 3.40653 31.025497 16.680221
2004-04-15 06:31:16 51°15.193 2°52.426 9.580458 3.405898 31.028941 16.74764
2004-04-15 06:31:22 51°15.202 2°52.392 9.572858 3.408848 31.060153 16.848768
2004-04-15 06:31:27 51°15.209 2°52.363 9.573708 3.407057 31.05049 16.815059
2004-04-15 06:31:31 51°15.215 2°52.34 9.566673 3.41106 31.090252 17.051024
2004-04-15 06:31:36 51°15.222 2°52.311 9.55638 3.409691 31.075001 16.71393
2004-04-15 06:31:42 51°15.231 2°52.276 9.55638 3.409691 31.075001 16.71393
2004-04-15 06:31:46 51°15.237 2°52.253 9.559874 3.411482 31.103668 16.882477
2004-04-15 06:31:51 51°15.244 2°52.224 9.553593 3.412746 31.119976 16.949896
2004-04-15 06:31:56 51°15.251 2°52.195 9.547312 3.41401 31.1377 16.545383
2004-04-15 06:32:01 51°15.258 2°52.165 9.542023 3.413589 31.140493 17.152153
2004-04-15 06:32:06 51°15.263 2°52.135 9.530591 3.415274 31.157549 16.882477
2004-04-15 06:32:11 51°15.269 2°52.105 9.530591 3.415274 31.157549 16.882477
2004-04-15 06:32:16 51°15.274 2°52.075 9.533993 3.417276 31.183459 17.051024
2004-04-15 06:32:22 51°15.28 2°52.039 9.534087 3.416328 31.181637 17.253281
2004-04-15 06:32:26 51°15.284 2°52.015 9.535693 3.414748 31.169173 17.556665
2004-04-15 06:32:31 51°15.288 2°51.984 9.545518 3.416854 31.188384 17.893759
2004-04-15 06:32:36 51°15.293 2°51.954 9.537488 3.420015 31.224634 17.657794
2004-04-15 06:32:41 51°15.298 2°51.923 9.537488 3.420015 31.224634 17.657794
2004-04-15 06:32:46 51°15.302 2°51.893 9.527426 3.416749 31.201468 17.624084
2004-04-15 06:32:51 51°15.307 2°51.862 9.518969 3.418646 31.22847 17.86005
2004-04-15 06:32:56 51°15.312 2°51.832 9.516323 3.415801 31.197526 17.657794
2004-04-15 06:33:01 51°15.317 2°51.801 9.521001 3.417487 31.207522 17.994888
2004-04-15 06:33:06 51°15.32 2°51.77 9.512259 3.419067 31.232032 18.601657
2004-04-15 06:33:11 51°15.323 2°51.739 9.509613 3.421279 31.251613 18.736494
2004-04-15 06:33:16 51°15.326 2°51.708 9.509613 3.421279 31.251613 18.736494
2004-04-15 06:33:22 51°15.328 2°51.671 9.505407 3.421174 31.261896 19.275845
2004-04-15 06:33:27 51°15.329 2°51.639 9.503706 3.421174 31.254801 18.770204
2004-04-15 06:33:31 51°15.329 2°51.615 9.496144 3.421911 31.270081 18.837623
2004-04-15 06:33:36 51°15.328 2°51.583 9.489621 3.420647 31.262233 19.376973
2004-04-15 06:33:42 51°15.325 2°51.546 9.492504 3.421701 31.278596 19.511811
2004-04-15 06:33:46 51°15.323 2°51.521 9.492504 3.421701 31.278596 19.511811
2004-04-15 06:33:51 51°15.32 2°51.489 9.491133 3.421279 31.282848 18.97246
2004-04-15 06:33:56 51°15.317 2°51.459 9.49326 3.42286 31.30101 18.871332
2004-04-15 06:34:02 51°15.312 2°51.421 9.491559 3.42307 31.308126 18.669076
2004-04-15 06:34:06 51°15.309 2°51.396 9.490708 3.422754 31.30492 18.500529
2004-04-15 06:34:11 51°15.305 2°51.365 9.490708 3.422754 31.30492 18.500529
2004-04-15 06:34:16 51°15.301 2°51.334 9.487635 3.420542 31.282474 18.264563
2004-04-15 06:34:21 51°15.297 2°51.303 9.490046 3.41991 31.281747 17.725212
2004-04-15 06:34:26 51°15.293 2°51.272 9.490377 3.419699 31.278188 17.152153
2004-04-15 06:34:31 51°15.29 2°51.241 9.479457 3.419278 31.276755 16.949896
2004-04-15 06:34:36 51°15.286 2°51.21 9.478795 3.419278 31.285999 16.309418
2004-04-15 06:34:41 51°15.282 2°51.179 9.478795 3.419278 31.285999 16.309418
2004-04-15 06:34:47 51°15.278 2°51.141 9.478511 3.419489 31.274629 16.241999
2004-04-15 06:34:51 51°15.275 2°51.116 9.47454 3.419278 31.278888 15.63523
2004-04-15 06:34:56 51°15.271 2°51.085 9.472459 3.41991 31.285303 16.17458
2004-04-15 06:35:02 51°15.267 2°51.048 9.472223 3.419278 31.288133 16.140871
2004-04-15 06:35:06 51°15.264 2°51.022 9.475107 3.420437 31.30132 15.770067
2004-04-15 06:35:11 51°15.261 2°50.991 9.475107 3.420437 31.30132 15.770067
2004-04-15 06:35:16 51°15.257 2°50.96 9.474398 3.420542 31.299543 15.63523
2004-04-15 06:35:22 51°15.253 2°50.923 9.467589 3.418225 31.278862 16.208289
2004-04-15 06:35:26 51°15.25 2°50.898 9.4761 3.41991 31.306651 15.534101
2004-04-15 06:35:31 51°15.247 2°50.866 9.467589 3.419068 31.290975 16.107161
2004-04-15 06:35:35 51°15.244 2°50.841 9.459171 3.419068 31.294533 15.500392
2004-04-15 06:35:42 51°15.239 2°50.797 9.464704 3.422228 31.3252 15.567811
2004-04-15 06:35:47 51°15.236 2°50.766 9.464704 3.422228 31.3252 15.567811
2004-04-15 06:35:51 51°15.233 2°50.741 9.455482 3.420753 31.309512 15.871195
2004-04-15 06:35:56 51°15.23 2°50.71 9.458935 3.417804 31.286679 16.309418
2004-04-15 06:36:02 51°15.225 2°50.672 9.456712 3.419805 31.30843 16.376836
2004-04-15 06:36:06 51°15.223 2°50.647 9.4543 3.420648 31.317702 17.118443
2004-04-15 06:36:11 51°15.219 2°50.616 9.4543 3.420648 31.317702 17.118443
2004-04-15 06:36:16 51°15.216 2°50.585 9.454064 3.421175 31.323052 16.74764
2004-04-15 06:36:21 51°15.213 2°50.553 9.459786 3.419384 31.311986 16.74764
2004-04-15 06:36:27 51°15.209 2°50.516 9.448624 3.421701 31.333391 16.680221
2004-04-15 06:36:32 51°15.206 2°50.485 9.444178 3.419068 31.311625 16.882477
2004-04-15 06:36:36 51°15.203 2°50.46 9.443563 3.422017 31.339454 16.781349
2004-04-15 06:36:41 51°15.2 2°50.429 9.443563 3.422017 31.339454 16.781349
2004-04-15 06:36:46 51°15.197 2°50.397 9.43623 3.422965 31.344095 17.3207
2004-04-15 06:36:51 51°15.194 2°50.366 9.436136 3.422123 31.344805 16.680221
2004-04-15 06:36:56 51°15.19 2°50.335 9.435284 3.421175 31.33731 16.680221
2004-04-15 06:37:02 51°15.187 2°50.297 9.428518 3.422017 31.345874 16.444255
2004-04-15 06:37:07 51°15.183 2°50.266 9.422604 3.42444 31.378355 16.376836
2004-04-15 06:37:12 51°15.18 2°50.234 9.421184 3.420753 31.340876 15.837486
2004-04-15 06:37:16 51°15.178 2°50.209 9.421184 3.420753 31.340876 15.837486
2004-04-15 06:37:22 51°15.174 2°50.172 9.419954 3.420121 31.335878 15.938614
2004-04-15 06:37:27 51°15.171 2°50.14 9.421657 3.420016 31.341944 15.500392
2004-04-15 06:37:32 51°15.168 2°50.109 9.424307 3.418225 31.327305 14.859913
2004-04-15 06:37:36 51°15.166 2°50.084 9.425159 3.417909 31.324805 14.556529
2004-04-15 06:37:41 51°15.163 2°50.053 9.427667 3.416961 31.320873 14.354272
2004-04-15 06:37:47 51°15.159 2°50.015 9.427667 3.416961 31.320873 14.354272
2004-04-15 06:37:51 51°15.156 2°49.99 9.420522 3.416119 31.310877 14.118306
2004-04-15 06:37:56 51°15.153 2°49.959 9.427572 3.415908 31.308735 14.387982
2004-04-15 06:38:01 51°15.15 2°49.928 9.422462 3.414433 31.29374 13.646375
2004-04-15 06:38:07 51°15.146 2°49.89 9.427714 3.411905 31.268037 12.76993
2004-04-15 06:38:11 51°15.144 2°49.865 9.427714 3.411905 31.268037 12.76993
2004-04-15 06:38:16 51°15.141 2°49.834 9.425159 3.413169 31.279463 13.174443
2004-04-15 06:38:21 51°15.138 2°49.803 9.427004 3.412432 31.273392 12.567674
2004-04-15 06:38:26 51°15.135 2°49.772 9.430127 3.413169 31.277326 12.567674
2004-04-15 06:38:31 51°15.132 2°49.74 9.430506 3.412326 31.273746 12.635093
2004-04-15 06:38:36 51°15.129 2°49.709 9.426437 3.411484 31.264466 12.567674
2004-04-15 06:38:41 51°15.126 2°49.678 9.426437 3.411484 31.264466 12.567674
2004-04-15 06:38:46 51°15.123 2°49.647 9.427714 3.409377 31.244472 12.635093
2004-04-15 06:38:51 51°15.12 2°49.616 9.429228 3.41338 31.285168 12.264289
2004-04-15 06:38:55 51°15.117 2°49.591 9.431357 3.410852 31.25448 12.23058
2004-04-15 06:39:01 51°15.114 2°49.554 9.428708 3.41043 31.251621 11.960905
2004-04-15 06:39:06 51°15.111 2°49.523 9.428992 3.409693 31.243414 12.062033
2004-04-15 06:39:11 51°15.108 2°49.491 9.428992 3.409693 31.243414 12.062033
2004-04-15 06:39:16 51°15.105 2°49.46 9.425963 3.410114 31.249833 12.163161
2004-04-15 06:39:21 51°15.102 2°49.429 9.430742 3.409482 31.241273 11.826067
2004-04-15 06:39:26 51°15.099 2°49.398 9.434291 3.412748 31.276605 12.129452
2004-04-15 06:39:32 51°15.096 2°49.361 9.429701 3.410325 31.25411 12.331708
2004-04-15 06:39:36 51°15.093 2°49.336 9.434574 3.408429 31.2327 12.196871
2004-04-15 06:39:42 51°15.09 2°49.298 9.428093 3.408324 31.233764 12.264289
2004-04-15 06:39:46 51°15.088 2°49.273 9.428093 3.408324 31.233764 12.264289
2004-04-15 06:39:51 51°15.085 2°49.242 9.423077 3.408534 31.235906 12.466546
2004-04-15 06:39:56 51°15.082 2°49.211 9.423361 3.409166 31.240907 12.500255
2004-04-15 06:40:01 51°15.079 2°49.18 9.42303 3.409377 31.240914 12.196871
2004-04-15 06:40:06 51°15.076 2°49.149 9.41702 3.407902 31.22877 12.365418
2004-04-15 06:40:11 51°15.074 2°49.118 9.41702 3.407902 31.22877 12.365418
2004-04-15 06:40:15 51°15.072 2°49.093 9.420806 3.410957 31.258399 12.297999
2004-04-15 06:40:22 51°15.068 2°49.049 9.4156 3.410746 31.261243 12.76993
2004-04-15 06:40:26 51°15.066 2°49.024 9.414322 3.410746 31.264092 13.3767
2004-04-15 06:40:31 51°15.063 2°48.993 9.412193 3.412959 31.280172 13.3767
2004-04-15 06:40:36 51°15.06 2°48.962 9.410631 3.412853 31.28409 13.511537
2004-04-15 06:40:41 51°15.057 2°48.93 9.410631 3.412853 31.28409 13.511537
2004-04-15 06:40:47 51°15.054 2°48.893 9.406135 3.411379 31.275508 13.511537
2004-04-15 06:40:51 51°15.052 2°48.868 9.411767 3.412432 31.286934 13.208153
2004-04-15 06:40:56 51°15.049 2°48.837 9.402206 3.412432 31.287647 13.3767
2004-04-15 06:41:01 51°15.046 2°48.806 9.399555 3.412221 31.285505 12.904768
2004-04-15 06:41:06 51°15.043 2°48.775 9.402585 3.411905 31.28443 12.938477
2004-04-15 06:41:12 51°15.04 2°48.737 9.402585 3.411905 31.28443 12.938477
2004-04-15 06:41:16 51°15.038 2°48.713 9.403295 3.412221 31.290497 12.567674
2004-04-15 06:41:21 51°15.035 2°48.681 9.40391 3.412327 31.292282 12.500255
2004-04-15 06:41:26 51°15.032 2°48.651 9.402017 3.412959 31.299425 12.297999
2004-04-15 06:41:31 51°15.029 2°48.62 9.406229 3.414118 31.321211 12.365418
2004-04-15 06:41:36 51°15.026 2°48.589 9.40533 3.413486 31.310494 12.533965
2004-04-15 06:41:41 51°15.022 2°48.558 9.407129 3.418015 31.360166 12.938477
2004-04-15 06:41:46 51°15.018 2°48.528 9.407129 3.418015 31.360166 12.938477
2004-04-15 06:41:51 51°15.013 2°48.497 9.411246 3.417594 31.352302 13.511537
2004-04-15 06:41:56 51°15.009 2°48.467 9.409684 3.420438 31.380535 14.758785
2004-04-15 06:42:01 51°15.004 2°48.437 9.413707 3.422334 31.396972 15.668939
2004-04-15 06:42:07 51°15.002 2°48.4 9.416026 3.424336 31.418777 17.051024
2004-04-15 06:42:11 51°15.001 2°48.375 9.416026 3.424336 31.418777 17.051024
2004-04-15 06:42:16 51°15.001 2°48.344 9.42038 3.425389 31.428785 17.657794
2004-04-15 06:42:21 51°15.001 2°48.313 9.424591 3.426232 31.43593 18.601657
2004-04-15 06:42:26 51°15.003 2°48.282 9.420474 3.427391 31.447727 19.612939
2004-04-15 06:42:31 51°15.004 2°48.251 9.421468 3.427285 31.44307 19.646648
2004-04-15 06:42:36 51°15.006 2°48.22 9.421752 3.427601 31.443419 19.714067
2004-04-15 06:42:42 51°15.009 2°48.183 9.421752 3.427601 31.443419 19.714067
2004-04-15 06:42:47 51°15.011 2°48.152 9.42866 3.428128 31.44448 19.781486
2004-04-15 06:42:51 51°15.013 2°48.127 9.425301 3.427285 31.435187 19.916324
2004-04-15 06:42:57 51°15.015 2°48.09 9.426815 3.42739 31.437692 19.680358
2004-04-15 06:43:02 51°15.018 2°48.059 9.423929 3.427812 31.44198 19.882614
2004-04-15 06:43:06 51°15.019 2°48.034 9.424733 3.42718 31.432682 19.511811
2004-04-15 06:43:12 51°15.022 2°47.997 9.424733 3.42718 31.432682 19.511811
2004-04-15 06:43:16 51°15.024 2°47.972 9.424733 3.42739 31.437692 19.680358
2004-04-15 06:43:22 51°15.026 2°47.935 9.428992 3.427074 31.43161 20.287127
2004-04-15 06:43:26 51°15.028 2°47.91 9.427383 3.426337 31.422674 19.680358
2004-04-15 06:43:31 51°15.03 2°47.879 9.431357 3.425494 31.416963 19.714067
2004-04-15 06:43:36 51°15.032 2°47.848 9.429134 3.424968 31.411603 19.444392
2004-04-15 06:43:40 51°15.034 2°47.823 9.432351 3.424546 31.405884 19.242136
2004-04-15 06:43:46 51°15.036 2°47.786 9.432351 3.424546 31.405884 19.242136
2004-04-15 06:43:51 51°15.038 2°47.755 9.431736 3.424125 31.400881 18.871332
2004-04-15 06:43:56 51°15.039 2°47.724 9.430458 3.423493 31.395881 18.803913
2004-04-15 06:44:01 51°15.039 2°47.693 9.429654 3.423282 31.390161 18.635366
2004-04-15 06:44:06 51°15.038 2°47.662 9.427099 3.423071 31.388018 18.871332
2004-04-15 06:44:12 51°15.037 2°47.625 9.427099 3.423071 31.388018 18.871332
2004-04-15 06:44:16 51°15.036 2°47.6 9.426153 3.423914 31.394445 18.905042
2004-04-15 06:44:22 51°15.035 2°47.563 9.423598 3.423387 31.392663 19.039879
2004-04-15 06:44:26 51°15.034 2°47.539 9.428992 3.424441 31.401234 19.376973
2004-04-15 06:44:31 51°15.033 2°47.508 9.427288 3.425389 31.413743 19.511811
2004-04-15 06:44:36 51°15.032 2°47.477 9.426247 3.426864 31.429466 19.950033
2004-04-15 06:44:41 51°15.031 2°47.446 9.428235 3.428233 31.444119 19.916324
2004-04-15 06:44:46 51°15.03 2°47.415 9.428235 3.428233 31.444119 19.916324
2004-04-15 06:44:51 51°15.028 2°47.385 9.424118 3.429392 31.459496 20.556802
2004-04-15 06:44:56 51°15.027 2°47.355 9.427667 3.429287 31.457707 20.556802
2004-04-15 06:45:01 51°15.025 2°47.324 9.426105 3.430235 31.465206 21.028734
2004-04-15 06:45:06 51°15.023 2°47.294 9.427998 3.430129 31.463416 20.556802
2004-04-15 06:45:11 51°15.02 2°47.264 9.427998 3.430129 31.463416 20.556802
2004-04-15 06:45:15 51°15.018 2°47.24 9.427572 3.430761 31.471284 21.534375
2004-04-15 06:45:22 51°15.013 2°47.198 9.416594 3.429708 31.460562 20.65793
2004-04-15 06:45:26 51°15.01 2°47.174 9.411672 3.429497 31.459135 20.826477
2004-04-15 06:45:31 51°15.006 2°47.145 9.402774 3.429076 31.449828 20.792768
2004-04-15 06:45:36 51°15.002 2°47.115 9.392596 3.428549 31.450202 20.489383
2004-04-15 06:45:42 51°14.998 2°47.079 9.392596 3.428549 31.450202 20.489383
2004-04-15 06:45:47 51°14.994 2°47.049 9.389709 3.432236 31.49132 21.466956
2004-04-15 06:45:52 51°14.99 2°47.02 9.379576 3.439505 31.568932 23.186136
2004-04-15 06:45:56 51°14.986 2°46.996 9.380476 3.447406 31.654471 27.231264
2004-04-15 06:46:02 51°14.982 2°46.961 9.377019 3.454464 31.735817 30.770751
2004-04-15 06:46:06 51°14.979 2°46.937 9.382843 3.460891 31.805707 34.310238
2004-04-15 06:46:11 51°14.976 2°46.907 9.382843 3.460891 31.805707 34.310238
2004-04-15 06:46:16 51°14.973 2°46.877 9.375267 3.465842 31.85913 37.849725
2004-04-15 06:46:21 51°14.971 2°46.847 9.368211 3.46974 31.904005 40.344221
2004-04-15 06:46:26 51°14.97 2°46.816 9.370721 3.473427 31.945293 42.906136
2004-04-15 06:46:31 51°14.968 2°46.786 9.364896 3.475745 31.969689 44.692734
2004-04-15 06:46:36 51°14.967 2°46.755 9.366222 3.477009 31.984059 45.973691
2004-04-15 06:46:42 51°14.966 2°46.719 9.366222 3.478589 32.00166 46.715298
2004-04-15 06:46:46 51°14.964 2°46.694 9.366222 3.478589 32.00166 46.715298
2004-04-15 06:46:51 51°14.963 2°46.664 9.362717 3.479854 32.016766 47.793999
2004-04-15 06:46:56 51°14.961 2°46.633 9.362007 3.480802 32.029378 48.29964
2004-04-15 06:47:02 51°14.959 2°46.596 9.370579 3.481645 32.040915 49.074956
2004-04-15 06:47:06 51°14.957 2°46.572 9.377445 3.48175 32.044187 49.546888
2004-04-15 06:47:11 51°14.955 2°46.542 9.381565 3.483014 32.056374 49.580597
2004-04-15 06:47:16 51°14.953 2°46.511 9.381565 3.483014 32.056374 49.580597
2004-04-15 06:47:22 51°14.951 2°46.474 9.391508 3.789338 35.018349 49.108665
2004-04-15 06:47:27 51°14.949 2°46.443 9.399508 3.476377 31.992942 48.83899
2004-04-15 06:47:31 51°14.947 2°46.419 9.399082 3.472374 31.948393 46.277076
2004-04-15 06:47:36 51°14.944 2°46.388 9.398987 3.464473 31.860424 42.939845
2004-04-15 06:47:42 51°14.942 2°46.352 9.398987 3.464473 31.860424 42.939845
2004-04-15 06:47:46 51°14.94 2°46.327 9.397662 3.458889 31.798349 40.040836
2004-04-15 06:47:51 51°14.939 2°46.296 9.394017 3.453095 31.733436 36.535059
2004-04-15 06:47:55 51°14.937 2°46.272 9.381707 3.449092 31.689715 34.006853
2004-04-15 06:48:02 51°14.933 2°46.229 9.372947 3.446985 31.665341 31.883161
2004-04-15 06:48:06 51°14.93 2°46.205 9.364849 3.447722 31.67286 31.141554
2004-04-15 06:48:11 51°14.925 2°46.175 9.359875 3.451831 31.714752 31.37752
2004-04-15 06:48:16 51°14.92 2°46.146 9.359875 3.451831 31.714752 31.37752
2004-04-15 06:48:21 51°14.914 2°46.116 9.360207 3.457309 31.775697 32.961862
2004-04-15 06:48:26 51°14.909 2°46.086 9.357176 3.462682 31.837053 35.32152
2004-04-15 06:48:31 51°14.903 2°46.057 9.35566 3.467949 31.899559 38.15311
2004-04-15 06:48:36 51°14.897 2°46.028 9.352723 3.473111 31.958116 40.445349
2004-04-15 06:48:41 51°14.891 2°45.998 9.358028 3.476377 31.995866 42.771298
2004-04-15 06:48:47 51°14.885 2°45.963 9.358028 3.476377 31.995866 42.771298
2004-04-15 06:48:51 51°14.88 2°45.939 9.354002 3.47406 31.972914 45.097247
2004-04-15 06:48:56 51°14.874 2°45.909 9.352107 3.479538 32.032555 45.602888
2004-04-15 06:49:01 51°14.869 2°45.88 9.349975 3.480591 32.042591 45.670306
2004-04-15 06:49:06 51°14.865 2°45.85 9.353102 3.481329 32.051594 47.15352
2004-04-15 06:49:11 51°14.861 2°45.819 9.353102 3.481329 32.051594 47.15352
2004-04-15 06:49:17 51°14.856 2°45.783 9.35566 3.481856 32.058444 47.490614
2004-04-15 06:49:22 51°14.853 2°45.753 9.35566 3.482593 32.066716 47.827708
2004-04-15 06:49:27 51°14.849 2°45.722 9.34917 3.483963 32.082185 47.861418
2004-04-15 06:49:31 51°14.846 2°45.698 9.344954 3.483752 32.077831 48.434477
2004-04-15 06:49:37 51°14.843 2°45.661 9.341779 3.483963 32.080719 48.232221
2004-04-15 06:49:42 51°14.839 2°45.631 9.339979 3.484489 32.084638 48.434477
2004-04-15 06:49:46 51°14.837 2°45.606 9.339979 3.484489 32.084638 48.434477
2004-04-15 06:49:51 51°14.833 2°45.576 9.343485 3.485122 32.094034 48.771571
2004-04-15 06:49:56 51°14.83 2°45.546 9.339979 3.486175 32.107008 49.546888
2004-04-15 06:50:02 51°14.826 2°45.509 9.341258 3.486913 32.118221 49.648016
2004-04-15 06:50:06 51°14.823 2°45.485 9.34538 3.487755 32.127576 50.288494
2004-04-15 06:50:11 51°14.82 2°45.455 9.34538 3.487755 32.127576 50.288494
2004-04-15 06:50:16 51°14.816 2°45.424 9.340974 3.487861 32.131591 51.13123
2004-04-15 06:50:21 51°14.813 2°45.394 9.335573 3.487756 32.131982 50.625589
2004-04-15 06:50:26 51°14.809 2°45.363 9.324958 3.488072 32.13595 51.367195
2004-04-15 06:50:31 51°14.806 2°45.333 9.312588 3.487861 32.134529 51.367195
2004-04-15 06:50:36 51°14.802 2°45.303 9.312493 3.487756 32.133452 50.457042
2004-04-15 06:50:42 51°14.798 2°45.267 9.310976 3.488809 32.1457 50.288494
2004-04-15 06:50:46 51°14.795 2°45.243 9.310976 3.488809 32.1457 50.288494
2004-04-15 06:50:52 51°14.791 2°45.206 9.307706 3.490811 32.17133 50.254785
2004-04-15 06:50:56 51°14.788 2°45.182 9.301306 3.492813 32.198444 51.502033
2004-04-15 06:51:01 51°14.785 2°45.152 9.299884 3.494077 32.216545 52.007674
2004-04-15 06:51:07 51°14.781 2°45.115 9.295854 3.494815 32.228521 51.67058
2004-04-15 06:51:11 51°14.779 2°45.091 9.295854 3.494815 32.228521 51.67058
2004-04-15 06:51:16 51°14.775 2°45.06 9.289548 3.495341 32.236866 51.906546
2004-04-15 06:51:21 51°14.772 2°45.03 9.289358 3.49629 32.24953 52.749281
2004-04-15 06:51:26 51°14.769 2°45 9.289311 3.497554 32.263958 52.277349
2004-04-15 06:51:31 51°14.765 2°44.969 9.289737 3.498713 32.281002 54.030238
2004-04-15 06:51:36 51°14.762 2°44.939 9.298461 3.499661 32.295155 53.996529
2004-04-15 06:51:42 51°14.758 2°44.902 9.303392 3.500609 32.307092 55.108939
2004-04-15 06:51:47 51°14.755 2°44.872 9.303392 3.500609 32.307092 55.108939
2004-04-15 06:51:51 51°14.752 2°44.847 9.311735 3.500925 32.312551 54.670717
2004-04-15 06:51:56 51°14.749 2°44.817 9.315906 3.500925 32.314771 55.513452
2004-04-15 06:52:01 51°14.746 2°44.786 9.31984 3.499766 32.299192 55.210067
2004-04-15 06:52:06 51°14.742 2°44.756 9.319982 3.498397 32.282198 53.92911
2004-04-15 06:52:11 51°14.739 2°44.725 9.319982 3.498397 32.282198 53.92911
2004-04-15 06:52:16 51°14.736 2°44.695 9.324674 3.496711 32.257538 53.558306
2004-04-15 06:52:22 51°14.732 2°44.658 9.325764 3.495973 32.24703 52.311059
2004-04-15 06:52:26 51°14.73 2°44.634 9.332066 3.494815 32.231471 51.839127
2004-04-15 06:52:31 51°14.726 2°44.603 9.332019 3.49355 32.214836 51.030101
2004-04-15 06:52:36 51°14.723 2°44.572 9.335383 3.492707 32.204732 50.254785
2004-04-15 06:52:42 51°14.719 2°44.535 9.335383 3.492707 32.204732 50.254785
2004-04-15 06:52:46 51°14.717 2°44.511 9.341258 3.491865 32.191683 50.119947
2004-04-15 06:52:51 51°14.713 2°44.48 9.342348 3.491548 32.185502 49.479469
2004-04-15 06:52:56 51°14.71 2°44.45 9.339221 3.490073 32.168933 47.962546
2004-04-15 06:53:01 51°14.707 2°44.419 9.3387 3.488915 32.154865 46.984973
2004-04-15 06:53:07 51°14.703 2°44.382 9.336141 3.487756 32.140065 45.737725
2004-04-15 06:53:11 51°14.7 2°44.358 9.336141 3.487756 32.140065 45.737725
2004-04-15 06:53:16 51°14.697 2°44.327 9.337847 3.48744 32.134626 44.625315
2004-04-15 06:53:21 51°14.694 2°44.297 9.336994 3.48765 32.136047 44.625315
2004-04-15 06:53:27 51°14.69 2°44.26 9.336947 3.487966 32.138546 43.951127
2004-04-15 06:53:31 51°14.687 2°44.235 9.336662 3.488914 32.148983 44.085965
2004-04-15 06:53:35 51°14.685 2°44.211 9.335146 3.488914 32.149718 44.659024
2004-04-15 06:53:42 51°14.681 2°44.168 9.335146 3.488914 32.149718 44.659024
2004-04-15 06:53:46 51°14.678 2°44.144 9.333583 3.489125 32.153345 45.029828
2004-04-15 06:53:51 51°14.675 2°44.113 9.333346 3.489652 32.157264 44.625315
2004-04-15 06:53:56 51°14.671 2°44.082 9.332445 3.489757 32.159813 44.760153
2004-04-15 06:54:02 51°14.667 2°44.045 9.332919 3.490495 32.168831 45.130956
2004-04-15 06:54:07 51°14.664 2°44.015 9.333725 3.490916 32.173144 45.636597
2004-04-15 06:54:11 51°14.661 2°43.99 9.333725 3.490916 32.173144 45.636597
2004-04-15 06:54:16 51°14.658 2°43.96 9.334199 3.490916 32.17388 46.411913
2004-04-15 06:54:21 51°14.655 2°43.929 9.334578 3.490706 32.173195 45.973691
2004-04-15 06:54:27 51°14.651 2°43.892 9.332303 3.4906 32.172117 46.142238
2004-04-15 06:54:32 51°14.648 2°43.862 9.337373 3.490495 32.170303 46.546751
2004-04-15 06:54:36 51°14.645 2°43.837 9.33671 3.491232 32.178587 46.546751
2004-04-15 06:54:41 51°14.642 2°43.806 9.33671 3.491232 32.178587 46.546751
2004-04-15 06:54:47 51°14.638 2°43.77 9.339505 3.491548 32.181086 46.546751
2004-04-15 06:54:51 51°14.636 2°43.745 9.344196 3.491127 32.176772 46.378204
2004-04-15 06:54:56 51°14.633 2°43.715 9.339505 3.490811 32.173538 46.411913
2004-04-15 06:55:01 51°14.63 2°43.684 9.339837 3.490073 32.165254 46.243366
2004-04-15 06:55:07 51°14.626 2°43.647 9.336947 3.489863 32.159421 45.46805
2004-04-15 06:55:11 51°14.623 2°43.623 9.339695 3.489757 32.157607 45.771435
2004-04-15 06:55:16 51°14.62 2°43.592 9.339695 3.489757 32.157607 45.771435
2004-04-15 06:55:22 51°14.616 2°43.556 9.33851 3.489336 32.153295 44.89499
2004-04-15 06:55:26 51°14.613 2°43.531 9.342538 3.489968 32.160499 45.602888
2004-04-15 06:55:32 51°14.61 2°43.494 9.344622 3.489863 32.159421 45.704016
2004-04-15 06:55:36 51°14.607 2°43.47 9.345807 3.490495 32.165889 44.827571
2004-04-15 06:55:42 51°14.603 2°43.433 9.344906 3.490495 32.165154 44.726443
2004-04-15 06:55:46 51°14.601 2°43.408 9.344906 3.490495 32.165154 44.726443
2004-04-15 06:55:51 51°14.598 2°43.378 9.34628 3.489757 32.158343 45.198375
2004-04-15 06:55:56 51°14.595 2°43.347 9.347417 3.488493 32.142466 44.456768
2004-04-15 06:56:01 51°14.591 2°43.317 9.346186 3.487545 32.132031 43.479195
2004-04-15 06:56:06 51°14.588 2°43.286 9.347844 3.486913 32.124829 43.074683
2004-04-15 06:56:11 51°14.585 2°43.255 9.34917 3.485965 32.114395 42.602751
2004-04-15 06:56:16 51°14.582 2°43.224 9.34917 3.485965 32.114395 42.602751
2004-04-15 06:56:22 51°14.579 2°43.188 9.350402 3.485438 32.108273 42.0634
2004-04-15 06:56:26 51°14.576 2°43.163 9.35386 3.484911 32.101417 41.389212
2004-04-15 06:56:32 51°14.572 2°43.127 9.350591 3.48449 32.09784 41.085828
2004-04-15 06:56:36 51°14.57 2°43.102 9.346707 3.484174 32.093874 41.355503
2004-04-15 06:56:42 51°14.566 2°43.065 9.346707 3.484174 32.093874 41.355503
2004-04-15 06:56:46 51°14.563 2°43.041 9.346707 3.484068 32.092796 41.085828
2004-04-15 06:56:52 51°14.56 2°43.004 9.34718 3.483857 32.088441 41.052118
2004-04-15 06:56:56 51°14.557 2°42.98 9.349549 3.483436 32.083398 40.681315
2004-04-15 06:57:01 51°14.554 2°42.949 9.354855 3.482909 32.077277 40.276802
2004-04-15 06:57:07 51°14.55 2°42.912 9.351965 3.482277 32.075212 40.883571
2004-04-15 06:57:11 51°14.548 2°42.888 9.351965 3.482277 32.075212 40.883571
2004-04-15 06:57:16 51°14.544 2°42.857 9.353244 3.480381 32.055819 40.512768
2004-04-15 06:57:21 51°14.541 2°42.827 9.354239 3.478169 32.03173 40.141965
2004-04-15 06:57:27 51°14.538 2°42.79 9.357744 3.476588 32.014109 38.861007
2004-04-15 06:57:31 51°14.535 2°42.766 9.356939 3.476061 32.008724 38.1194
2004-04-15 06:57:36 51°14.532 2°42.735 9.359733 3.474797 31.994337 37.748597
2004-04-15 06:57:42 51°14.528 2°42.699 9.359733 3.474797 31.994337 37.748597
2004-04-15 06:57:47 51°14.525 2°42.668 9.358786 3.47269 31.97426 36.46764
2004-04-15 06:57:51 51°14.522 2°42.643 9.351965 3.471531 31.958032 35.490067
2004-04-15 06:57:56 51°14.52 2°42.612 9.34718 3.47111 31.952265 35.32152
2004-04-15 06:58:02 51°14.517 2°42.574 9.345522 3.473006 31.971645 34.512494
2004-04-15 06:58:06 51°14.515 2°42.55 9.349454 3.476061 32.002872 34.681042
2004-04-15 06:58:12 51°14.512 2°42.513 9.349454 3.476061 32.002872 34.681042
2004-04-15 06:58:16 51°14.509 2°42.488 9.347607 3.479327 32.038454 35.456358
2004-04-15 06:58:21 51°14.506 2°42.458 9.347133 3.482593 32.074778 36.804734
2004-04-15 06:58:26 51°14.503 2°42.427 9.352012 3.485648 32.108226 38.254238
2004-04-15 06:58:31 51°14.5 2°42.396 9.352818 3.488072 32.134481 39.434067
2004-04-15 06:58:36 51°14.497 2°42.366 9.357033 3.489336 32.148884 40.344221
2004-04-15 06:58:41 51°14.494 2°42.335 9.359165 3.490073 32.15643 41.389212
2004-04-15 06:58:46 51°14.491 2°42.305 9.359165 3.490073 32.15643 41.389212
2004-04-15 06:58:51 51°14.488 2°42.274 9.361628 3.489652 32.150648 42.231947
2004-04-15 06:58:56 51°14.485 2°42.243 9.360775 3.487861 32.130122 42.265657
2004-04-15 06:59:01 51°14.482 2°42.213 9.360775 3.483857 32.089174 42.130819
2004-04-15 06:59:07 51°14.478 2°42.177 9.357223 3.481118 32.057498 40.445349
2004-04-15 06:59:11 51°14.476 2°42.152 9.357223 3.481118 32.057498 40.445349
2004-04-15 06:59:16 51°14.473 2°42.122 9.356086 3.477958 32.024452 39.096973
2004-04-15 06:59:22 51°14.469 2°42.086 9.355423 3.474481 31.985988 38.456494
2004-04-15 06:59:27 51°14.466 2°42.055 9.352676 3.473428 31.972299 37.276665
2004-04-15 06:59:31 51°14.463 2°42.031 9.353197 3.471742 31.958725 35.928289
2004-04-15 06:59:36 51°14.46 2°42 9.353386 3.470056 31.942229 36.872153
2004-04-15 06:59:42 51°14.456 2°41.964 9.353386 3.470056 31.942229 36.872153
2004-04-15 06:59:47 51°14.453 2°41.933 9.353433 3.468687 31.928234 35.759742
2004-04-15 06:59:51 51°14.451 2°41.909 9.351728 3.467107 31.914275 34.849589
2004-04-15 06:59:56 51°14.447 2°41.879 9.35277 3.465737 31.901009 34.512494
2004-04-15 07:00:01 51°14.444 2°41.849 9.35296 3.465 31.893474 33.703469
2004-04-15 07:00:07 51°14.441 2°41.812 9.354997 3.465316 31.896703 33.973144
2004-04-15 07:00:11 51°14.438 2°41.788 9.354997 3.465316 31.896703 33.973144
2004-04-15 07:00:16 51°14.435 2°41.757 9.356228 3.466159 31.906044 33.973144
2004-04-15 07:00:21 51°14.432 2°41.727 9.350591 3.467107 31.917192 34.141691
2004-04-15 07:00:26 51°14.429 2°41.697 9.351302 3.468371 31.927923 34.681042
2004-04-15 07:00:31 51°14.426 2°41.666 9.351302 3.469003 31.934383 35.018136
2004-04-15 07:00:36 51°14.423 2°41.636 9.349454 3.46953 31.939766 35.624905
2004-04-15 07:00:41 51°14.42 2°41.605 9.349454 3.46953 31.939766 35.624905
2004-04-15 07:00:47 51°14.416 2°41.569 9.351823 3.470267 31.947303 35.119264
2004-04-15 07:00:51 51°14.414 2°41.545 9.351965 3.470478 31.951647 35.388939
2004-04-15 07:00:56 51°14.411 2°41.514 9.354381 3.470899 31.956684 35.624905
2004-04-15 07:01:01 51°14.407 2°41.484 9.35296 3.470794 31.955608 36.299093
2004-04-15 07:01:06 51°14.405 2°41.454 9.349881 3.471847 31.967107 36.096836
2004-04-15 07:01:11 51°14.402 2°41.423 9.349881 3.471847 31.967107 36.096836
2004-04-15 07:01:16 51°14.399 2°41.393 9.348459 3.472164 31.970337 36.096836
2004-04-15 07:01:22 51°14.395 2°41.356 9.348744 3.472585 31.972453 35.658614
2004-04-15 07:01:27 51°14.392 2°41.326 9.356134 3.47248 31.972107 35.827161
2004-04-15 07:01:31 51°14.389 2°41.302 9.348838 3.472269 31.972145 35.726033
2004-04-15 07:01:36 51°14.386 2°41.271 9.349881 3.47248 31.972837 35.658614
2004-04-15 07:01:41 51°14.383 2°41.24 9.349881 3.47248 31.972837 35.658614
2004-04-15 07:01:46 51°14.38 2°41.21 9.351112 3.473006 31.979684 34.714751
2004-04-15 07:01:51 51°14.377 2°41.179 9.351823 3.473322 31.982184 34.917007
2004-04-15 07:01:56 51°14.374 2°41.149 9.347417 3.47406 31.989723 34.714751
2004-04-15 07:02:01 51°14.371 2°41.118 9.348128 3.475008 31.997953 34.714751
2004-04-15 07:02:05 51°14.368 2°41.094 9.345617 3.475851 32.00657 35.422648
2004-04-15 07:02:11 51°14.365 2°41.058 9.345617 3.475851 32.00657 35.422648
2004-04-15 07:02:17 51°14.361 2°41.021 9.346043 3.476378 32.011955 34.849589
2004-04-15 07:02:21 51°14.359 2°40.997 9.34448 3.477747 32.028886 35.388939
2004-04-15 07:02:27 51°14.355 2°40.96 9.338131 3.479749 32.050087 35.591195
2004-04-15 07:02:31 51°14.353 2°40.936 9.340548 3.481329 32.066981 36.771024
2004-04-15 07:02:36 51°14.35 2°40.906 9.336426 3.48312 32.084566 37.175537
2004-04-15 07:02:41 51°14.347 2°40.875 9.336805 3.485649 32.111896 37.681178
2004-04-15 07:02:47 51°14.343 2°40.839 9.336805 3.485649 32.111896 37.681178
2004-04-15 07:02:51 51°14.34 2°40.815 9.338652 3.487545 32.132765 38.456494
2004-04-15 07:02:56 51°14.337 2°40.785 9.341069 3.489547 32.156186 39.804871
2004-04-15 07:03:01 51°14.334 2°40.755 9.3378 3.490495 32.169567 40.007127
2004-04-15 07:03:07 51°14.33 2°40.718 9.3405 3.489863 32.164569 40.276802
2004-04-15 07:03:11 51°14.328 2°40.694 9.3405 3.489863 32.164569 40.276802
2004-04-15 07:03:16 51°14.325 2°40.664 9.340974 3.489125 32.156286 40.344221
2004-04-15 07:03:21 51°14.322 2°40.634 9.341211 3.488493 32.148347 40.41164
2004-04-15 07:03:27 51°14.318 2°40.598 9.338416 3.488704 32.150503 40.445349
2004-04-15 07:03:31 51°14.315 2°40.574 9.338652 3.489125 32.152609 40.243093
2004-04-15 07:03:36 51°14.312 2°40.544 9.338131 3.489652 32.158 40.681315
2004-04-15 07:03:42 51°14.308 2°40.508 9.339079 3.491127 32.172358 40.917281
2004-04-15 07:03:47 51°14.305 2°40.478 9.339079 3.491127 32.172358 40.917281
2004-04-15 07:03:52 51°14.302 2°40.447 9.338795 3.493234 32.194658 41.119537
2004-04-15 07:03:56 51°14.299 2°40.423 9.337705 3.495236 32.216619 41.490341
2004-04-15 07:04:02 51°14.296 2°40.387 9.335099 3.497132 32.236769 41.995982
2004-04-15 07:04:06 51°14.293 2°40.363 9.333393 3.498291 32.248633 42.164529
2004-04-15 07:04:11 51°14.29 2°40.333 9.333393 3.498291 32.248633 42.164529
2004-04-15 07:04:16 51°14.287 2°40.303 9.335241 3.49945 32.25976 42.535332
2004-04-15 07:04:21 51°14.284 2°40.273 9.331592 3.50082 32.275997 42.501623
2004-04-15 07:04:26 51°14.281 2°40.243 9.333725 3.502084 32.287466 42.400494
2004-04-15 07:04:31 51°14.278 2°40.213 9.331592 3.503243 32.300071 42.265657
2004-04-15 07:04:36 51°14.275 2°40.183 9.332587 3.504402 32.314156 42.737589
2004-04-15 07:04:41 51°14.271 2°40.153 9.332587 3.504402 32.314156 42.737589
2004-04-15 07:04:46 51°14.268 2°40.123 9.329318 3.50535 32.326086 43.411777
2004-04-15 07:04:51 51°14.265 2°40.094 9.328654 3.506193 32.333239 43.479195
2004-04-15 07:04:56 51°14.262 2°40.064 9.330739 3.507036 32.344092 44.187093
2004-04-15 07:05:01 51°14.259 2°40.034 9.330739 3.508194 32.356704 44.760153
2004-04-15 07:05:06 51°14.256 2°40.003 9.332351 3.509353 32.367836 44.962409
2004-04-15 07:05:11 51°14.253 2°39.973 9.33164 3.510618 32.38227 45.737725
2004-04-15 07:05:16 51°14.25 2°39.943 9.33164 3.510618 32.38227 45.737725
2004-04-15 07:05:21 51°14.247 2°39.914 9.333535 3.511566 32.390503 45.805144
2004-04-15 07:05:27 51°14.243 2°39.878 9.33273 3.512093 32.396642 46.917554
2004-04-15 07:05:31 51°14.24 2°39.854 9.329886 3.51283 32.404199 47.220939
2004-04-15 07:05:36 51°14.237 2°39.824 9.331308 3.513041 32.405616 47.15352
2004-04-15 07:05:41 51°14.233 2°39.795 9.329744 3.514305 32.418571 47.254648
2004-04-15 07:05:46 51°14.23 2°39.765 9.329744 3.514305 32.418571 47.254648
2004-04-15 07:05:51 51°14.227 2°39.735 9.329223 3.515991 32.436587 48.26593
2004-04-15 07:05:56 51°14.224 2°39.706 9.328891 3.518098 32.45744 48.603024
2004-04-15 07:06:02 51°14.221 2°39.67 9.326948 3.519573 32.471814 49.850272
2004-04-15 07:06:07 51°14.218 2°39.64 9.322257 3.521153 32.489498 50.018819
2004-04-15 07:06:11 51°14.215 2°39.617 9.322257 3.521153 32.489498 50.018819
2004-04-15 07:06:16 51°14.212 2°39.587 9.321119 3.522839 32.506778 50.827845
2004-04-15 07:06:21 51°14.209 2°39.557 9.317849 3.524314 32.523388 51.299777
2004-04-15 07:06:26 51°14.206 2°39.528 9.315432 3.526843 32.550058 51.232358
2004-04-15 07:06:31 51°14.203 2°39.498 9.315005 3.530846 32.592605 52.277349
2004-04-15 07:06:35 51°14.2 2°39.474 9.317138 3.534429 32.63084 53.794272
2004-04-15 07:06:41 51°14.196 2°39.439 9.319887 3.538643 32.677067 54.771845
2004-04-15 07:06:47 51°14.193 2°39.403 9.319887 3.538643 32.677067 54.771845
2004-04-15 07:06:51 51°14.19 2°39.38 9.322304 3.541909 32.71208 56.356187
2004-04-15 07:06:56 51°14.187 2°39.35 9.3242 3.544438 32.740281 56.389896
2004-04-15 07:07:01 51°14.184 2°39.32 9.321641 3.546545 32.762662 56.625862
2004-04-15 07:07:07 51°14.181 2°39.285 9.324626 3.546861 32.764408 56.794409
2004-04-15 07:07:11 51°14.178 2°39.261 9.329223 3.545597 32.74843 56.558443
2004-04-15 07:07:16 51°14.175 2°39.231 9.329223 3.545597 32.74843 56.558443
2004-04-15 07:07:21 51°14.172 2°39.201 9.331024 3.544965 32.742691 56.221349
2004-04-15 07:07:26 51°14.169 2°39.171 9.334862 3.54349 32.726054 56.019093
2004-04-15 07:07:31 51°14.165 2°39.142 9.338084 3.543174 32.722061 55.277486
2004-04-15 07:07:36 51°14.162 2°39.113 9.339363 3.540013 32.687381 54.299913
2004-04-15 07:07:41 51°14.158 2°39.083 9.339363 3.540013 32.687381 54.299913
2004-04-15 07:07:46 51°14.154 2°39.054 9.339411 3.537905 32.664266 53.288631
2004-04-15 07:07:51 51°14.151 2°39.024 9.336994 3.534323 32.623041 52.715571
2004-04-15 07:07:56 51°14.147 2°38.995 9.331071 3.5319 32.598189 50.996392
2004-04-15 07:08:01 51°14.144 2°38.965 9.319034 3.52916 32.567865 49.816563
2004-04-15 07:08:06 51°14.141 2°38.936 9.309934 3.52758 32.549428 49.614306
2004-04-15 07:08:11 51°14.137 2°38.906 9.309934 3.52758 32.549428 49.614306
2004-04-15 07:08:16 51°14.134 2°38.877 9.296897 3.527369 32.545779 48.400768
2004-04-15 07:08:21 51°14.13 2°38.847 9.289453 3.530319 32.581983 48.940118
2004-04-15 07:08:27 51°14.127 2°38.812 9.281012 3.538116 32.664186 49.243503
2004-04-15 07:08:31 51°14.124 2°38.789 9.280159 3.545386 32.749266 51.367195
2004-04-15 07:08:36 51°14.121 2°38.759 9.276222 3.551287 32.818103 52.378477
2004-04-15 07:08:41 51°14.117 2°38.729 9.276222 3.551287 32.818103 52.378477
2004-04-15 07:08:46 51°14.113 2°38.699 9.267685 3.558557 32.900313 54.839264
2004-04-15 07:08:51 51°14.109 2°38.67 9.268207 3.563087 32.953667 55.816836
2004-04-15 07:08:56 51°14.106 2°38.64 9.26427 3.56667 32.995789 57.536016
2004-04-15 07:09:01 51°14.1 2°38.612 9.263274 3.569093 33.025251 58.479879
2004-04-15 07:09:06 51°14.095 2°38.583 9.259574 3.571306 33.052557 59.592289
2004-04-15 07:09:11 51°14.089 2°38.554 9.259574 3.571306 33.052557 59.592289
2004-04-15 07:09:16 51°14.082 2°38.526 9.261708 3.573203 33.076619 60.030512
2004-04-15 07:09:21 51°14.075 2°38.498 9.261803 3.574678 33.096352 60.839537
2004-04-15 07:09:27 51°14.067 2°38.464 9.268491 3.575626 33.108391 61.513725
2004-04-15 07:09:31 51°14.061 2°38.441 9.277455 3.576364 33.118261 61.850819
2004-04-15 07:09:37 51°14.052 2°38.408 9.282719 3.577734 33.133883 62.154204
2004-04-15 07:09:41 51°14.046 2°38.386 9.287035 3.577839 33.134208 61.918238
2004-04-15 07:09:46 51°14.039 2°38.358 9.287035 3.577839 33.134208 61.918238
2004-04-15 07:09:51 51°14.031 2°38.331 9.289311 3.57826 33.136268 62.086785
2004-04-15 07:09:56 51°14.023 2°38.303 9.289785 3.578366 33.132795 61.345178
2004-04-15 07:10:02 51°14.014 2°38.27 9.288979 3.578155 33.12455 60.030512
2004-04-15 07:10:07 51°14.006 2°38.242 9.286228 3.57826 33.121079 60.435024
2004-04-15 07:10:11 51°14 2°38.22 9.284284 3.578366 33.118368 59.625999
2004-04-15 07:10:16 51°13.992 2°38.192 9.284284 3.578366 33.118368 59.625999
2004-04-15 07:10:21 51°13.985 2°38.165 9.287604 3.57826 33.116525 59.423742
2004-04-15 07:10:26 51°13.977 2°38.137 9.290828 3.578787 33.118152 59.794546
2004-04-15 07:10:31 51°13.97 2°38.109 9.300405 3.578787 33.119669 59.929383
2004-04-15 07:10:36 51°13.962 2°38.082 9.30908 3.578892 33.12303 60.333896
2004-04-15 07:10:41 51°13.954 2°38.054 9.315195 3.57826 33.115008 60.401315
2004-04-15 07:10:47 51°13.946 2°38.021 9.315195 3.57826 33.115008 60.401315
2004-04-15 07:10:51 51°13.94 2°37.999 9.320977 3.579208 33.124765 60.772118
2004-04-15 07:10:55 51°13.933 2°37.977 9.324532 3.578682 33.11555 61.109212
2004-04-15 07:11:01 51°13.924 2°37.943 9.329744 3.578365 33.106989 60.906956
2004-04-15 07:11:06 51°13.917 2°37.916 9.332872 3.577312 33.08933 60.873247
2004-04-15 07:11:12 51°13.908 2°37.882 9.335952 3.576469 33.073845 60.569862
2004-04-15 07:11:16 51°13.902 2°37.86 9.335952 3.576469 33.073845 60.569862
2004-04-15 07:11:21 51°13.894 2°37.833 9.335525 3.576152 33.067567 60.839537
2004-04-15 07:11:26 51°13.887 2°37.806 9.337515 3.575626 33.056854 60.67099
2004-04-15 07:11:31 51°13.879 2°37.778 9.3414 3.575626 33.053071 61.378888
2004-04-15 07:11:36 51°13.872 2°37.75 9.346565 3.575731 33.049616 61.378888
2004-04-15 07:11:41 51°13.864 2°37.722 9.346565 3.575731 33.049616 61.378888
2004-04-15 07:11:47 51°13.856 2°37.689 9.34268 3.575731 33.046591 61.682272
2004-04-15 07:11:51 51°13.85 2°37.666 9.340642 3.576258 33.051248 61.581144
2004-04-15 07:11:56 51°13.842 2°37.639 9.337657 3.575731 33.044323 61.075503
2004-04-15 07:12:02 51°13.833 2°37.605 9.335004 3.575204 33.037399 61.041794
2004-04-15 07:12:07 51°13.826 2°37.578 9.332824 3.575415 33.035029 62.019366
2004-04-15 07:12:11 51°13.82 2°37.555 9.332824 3.575415 33.035029 62.019366
2004-04-15 07:12:15 51°13.814 2°37.533 9.328891 3.574888 33.031129 61.480016
2004-04-15 07:12:21 51°13.805 2°37.5 9.32965 3.576995 33.054288 62.659845
2004-04-15 07:12:27 51°13.796 2°37.466 9.32946 3.576468 33.0519 62.592426
2004-04-15 07:12:32 51°13.788 2°37.439 9.330597 3.577522 33.065752 63.468871
2004-04-15 07:12:36 51°13.783 2°37.416 9.330645 3.577944 33.071596 64.749828
2004-04-15 07:12:41 51°13.775 2°37.389 9.330645 3.577944 33.071596 64.749828
2004-04-15 07:12:47 51°13.766 2°37.355 9.333535 3.57847 33.078524 64.581281
2004-04-15 07:12:51 51°13.76 2°37.333 9.339363 3.576995 33.063365 64.850956
2004-04-15 07:12:56 51°13.753 2°37.305 9.3414 3.579103 33.085021 66.030785
2004-04-15 07:13:01 51°13.746 2°37.277 9.33979 3.578681 33.081446 66.469007
2004-04-15 07:13:07 51°13.737 2°37.243 9.334815 3.577944 33.073109 66.839811
2004-04-15 07:13:11 51°13.731 2°37.221 9.334815 3.577944 33.073109 66.839811
2004-04-15 07:13:16 51°13.723 2°37.194 9.336947 3.577522 33.065752 67.648836
2004-04-15 07:13:22 51°13.713 2°37.161 9.33472 3.576574 33.052983 67.210614
2004-04-15 07:13:27 51°13.704 2°37.134 9.334578 3.576574 33.052227 67.042067
2004-04-15 07:13:31 51°13.698 2°37.113 9.336094 3.57689 33.05623 67.412871
2004-04-15 07:13:36 51°13.689 2°37.087 9.337515 3.577101 33.060665 67.648836
2004-04-15 07:13:42 51°13.678 2°37.055 9.336236 3.57689 33.058499 67.581418
2004-04-15 07:13:47 51°13.669 2°37.028 9.336236 3.57689 33.058499 67.581418
2004-04-15 07:13:51 51°13.662 2°37.007 9.34249 3.576152 33.050921 68.323024
2004-04-15 07:13:56 51°13.653 2°36.981 9.347275 3.575625 33.046264 67.851093
2004-04-15 07:14:02 51°13.643 2°36.949 9.348602 3.575625 33.043996 67.783674
2004-04-15 07:14:07 51°13.633 2°36.922 9.347133 3.574888 33.036419 67.379161
2004-04-15 07:14:11 51°13.626 2°36.901 9.344575 3.573623 33.020408 67.143195
2004-04-15 07:14:15 51°13.619 2°36.88 9.344575 3.573623 33.020408 67.143195
2004-04-15 07:14:21 51°13.608 2°36.848 9.342632 3.572043 33.001909 66.266751
2004-04-15 07:14:26 51°13.6 2°36.821 9.342822 3.570673 32.984823 65.592563
2004-04-15 07:14:31 51°13.591 2°36.795 9.338226 3.56983 32.973905 65.18805
2004-04-15 07:14:36 51°13.582 2°36.768 9.336236 3.569198 32.969676 65.019503
2004-04-15 07:14:41 51°13.573 2°36.741 9.336236 3.569198 32.969676 65.019503
2004-04-15 07:14:47 51°13.563 2°36.709 9.33652 3.570568 32.984496 65.76111
2004-04-15 07:14:51 51°13.556 2°36.688 9.335715 3.570673 32.985578 66.637554
2004-04-15 07:14:56 51°13.547 2°36.661 9.337942 3.571621 32.996825 67.412871
2004-04-15 07:15:01 51°13.539 2°36.635 9.336426 3.572254 33.007093 67.884802
2004-04-15 07:15:07 51°13.528 2°36.602 9.339221 3.574256 33.028413 68.323024
2004-04-15 07:15:11 51°13.521 2°36.581 9.339221 3.574256 33.028413 68.323024
2004-04-15 07:15:16 51°13.513 2°36.554 9.339979 3.575625 33.043996 68.491571
2004-04-15 07:15:21 51°13.504 2°36.528 9.33979 3.577206 33.058722 68.188187
2004-04-15 07:15:26 51°13.495 2°36.501 9.341353 3.577943 33.067813 68.255606
2004-04-15 07:15:31 51°13.486 2°36.475 9.346422 3.579313 33.080373 68.221896
2004-04-15 07:15:36 51°13.478 2°36.449 9.351254 3.580261 33.087089 68.188187
2004-04-15 07:15:42 51°13.467 2°36.417 9.351254 3.580261 33.087089 68.188187
2004-04-15 07:15:47 51°13.459 2°36.39 9.35367 3.582053 33.107009 68.221896
2004-04-15 07:15:51 51°13.452 2°36.369 9.355091 3.583212 33.118919 68.221896
2004-04-15 07:15:56 51°13.443 2°36.343 9.357318 3.584792 33.133645 68.221896
2004-04-15 07:16:02 51°13.432 2°36.312 9.355139 3.584265 33.124443 68.221896
2004-04-15 07:16:06 51°13.424 2°36.292 9.354855 3.583001 33.108422 68.221896
2004-04-15 07:16:11 51°13.414 2°36.267 9.354855 3.583001 33.108422 68.221896
2004-04-15 07:16:15 51°13.406 2°36.247 9.355139 3.582896 33.104311 68.188187
2004-04-15 07:16:22 51°13.391 2°36.213 9.355234 3.583633 33.110373 68.221896
2004-04-15 07:16:27 51°13.38 2°36.189 9.356797 3.586583 33.139166 68.221896
2004-04-15 07:16:31 51°13.371 2°36.169 9.357223 3.588375 33.157569 68.188187
2004-04-15 07:16:36 51°13.36 2°36.145 9.355802 3.589007 33.16634 68.255606
2004-04-15 07:16:41 51°13.349 2°36.121 9.355802 3.589007 33.16634 68.255606
2004-04-15 07:16:47 51°13.335 2°36.092 9.353102 3.590377 33.179656 68.221896
2004-04-15 07:16:51 51°13.327 2°36.073 9.352723 3.589639 33.172077 68.188187
2004-04-15 07:16:56 51°13.316 2°36.048 9.35097 3.587953 33.154755 68.255606
2004-04-15 07:17:01 51°13.305 2°36.024 9.349549 3.586057 33.132996 68.255606
2004-04-15 07:17:07 51°13.293 2°35.994 9.346422 3.583738 33.109184 68.188187
2004-04-15 07:17:12 51°13.282 2°35.97 9.348317 3.581737 33.092405 68.255606
2004-04-15 07:17:16 51°13.273 2°35.95 9.348317 3.581737 33.092405 68.255606
2004-04-15 07:17:22 51°13.26 2°35.92 9.349549 3.579418 33.068595 68.424153
2004-04-15 07:17:27 51°13.25 2°35.896 9.351823 3.577627 33.052466 68.424153
2004-04-15 07:17:31 51°13.241 2°35.876 9.355139 3.577206 33.047381 67.648836
2004-04-15 07:17:36 51°13.231 2°35.852 9.360444 3.577311 33.049219 67.109486
2004-04-15 07:17:42 51°13.218 2°35.822 9.363475 3.577417 33.051057 67.648836
2004-04-15 07:17:47 51°13.207 2°35.798 9.363475 3.577417 33.051057 67.648836
2004-04-15 07:17:51 51°13.199 2°35.778 9.367738 3.57689 33.045646 67.480289
2004-04-15 07:17:56 51°13.188 2°35.753 9.372284 3.57689 33.043379 67.749965
2004-04-15 07:18:02 51°13.176 2°35.724 9.37503 3.576679 33.038193 68.323024
2004-04-15 07:18:07 51°13.165 2°35.699 9.379198 3.5771 33.039499 68.120768
2004-04-15 07:18:11 51°13.157 2°35.68 9.380334 3.576784 33.032477 68.424153
2004-04-15 07:18:15 51°13.148 2°35.66 9.380334 3.576784 33.032477 68.424153
2004-04-15 07:18:21 51°13.135 2°35.631 9.382133 3.577311 33.03562 68.390443
2004-04-15 07:18:26 51°13.125 2°35.606 9.384453 3.578154 33.039742 68.424153
2004-04-15 07:18:31 51°13.114 2°35.581 9.386915 3.579102 33.044946 68.221896
2004-04-15 07:18:36 51°13.103 2°35.557 9.386963 3.580683 33.059658 68.255606
2004-04-15 07:18:41 51°13.092 2°35.532 9.387389 3.582684 33.077185 68.188187
2004-04-15 07:18:47 51°13.08 2°35.502 9.387389 3.582684 33.077185 68.188187
2004-04-15 07:18:51 51°13.071 2°35.483 9.388099 3.585424 33.104551 68.188187
2004-04-15 07:18:56 51°13.06 2°35.458 9.383696 3.588164 33.131162 68.221896
2004-04-15 07:19:01 51°13.05 2°35.433 9.378298 3.591746 33.164155 68.221896
2004-04-15 07:19:07 51°13.037 2°35.404 9.372615 3.595961 33.208949 68.221896
2004-04-15 07:19:11 51°13.029 2°35.384 9.372615 3.595961 33.208949 68.221896
2004-04-15 07:19:16 51°13.018 2°35.36 9.36518 3.598911 33.238489 68.255606
2004-04-15 07:19:21 51°13.007 2°35.335 9.36769 3.602283 33.274642 68.154477
2004-04-15 07:19:26 51°12.997 2°35.31 9.364754 3.605971 33.314051 68.221896
2004-04-15 07:19:31 51°12.987 2°35.286 9.367406 3.608184 33.339834 68.154477
2004-04-15 07:19:36 51°12.977 2°35.261 9.371242 3.611872 33.380788 68.154477
2004-04-15 07:19:41 51°12.967 2°35.236 9.371242 3.611872 33.380788 68.154477
2004-04-15 07:19:47 51°12.954 2°35.207 9.381944 3.614506 33.413214 68.188187
2004-04-15 07:19:51 51°12.946 2°35.187 9.392454 3.616298 33.433926 68.188187
2004-04-15 07:19:56 51°12.936 2°35.163 9.405283 3.617773 33.449096 68.221896
2004-04-15 07:20:01 51°12.925 2°35.138 9.416452 3.619248 33.463503 68.154477
2004-04-15 07:20:07 51°12.912 2°35.109 9.425301 3.61988 33.462356 68.188187
2004-04-15 07:20:11 51°12.904 2°35.09 9.425301 3.61988 33.462356 68.188187
2004-04-15 07:20:16 51°12.893 2°35.066 9.432209 3.619564 33.454517 68.188187
2004-04-15 07:20:21 51°12.882 2°35.041 9.436561 3.619459 33.443499 68.188187
2004-04-15 07:20:25 51°12.874 2°35.022 9.441765 3.619037 33.42924 68.221896
2004-04-15 07:20:31 51°12.861 2°34.993 9.445171 3.618826 33.41868 68.221896
2004-04-15 07:20:36 51°12.85 2°34.97 9.448388 3.618826 33.411052 68.255606
2004-04-15 07:20:41 51°12.838 2°34.947 9.450895 3.619142 33.408198 68.221896
2004-04-15 07:20:46 51°12.827 2°34.924 9.450895 3.619142 33.408198 68.221896
2004-04-15 07:20:51 51°12.815 2°34.901 9.454111 3.619353 33.405026 68.424153
2004-04-15 07:20:56 51°12.803 2°34.878 9.455766 3.62009 33.406501 67.412871
2004-04-15 07:21:01 51°12.792 2°34.855 9.45884 3.620828 33.411024 66.064494
2004-04-15 07:21:06 51°12.78 2°34.832 9.458084 3.621355 33.414145 64.61499
2004-04-15 07:21:11 51°12.768 2°34.809 9.458793 3.622198 33.42051 62.862101
2004-04-15 07:21:16 51°12.757 2°34.785 9.458793 3.622198 33.42051 62.862101
2004-04-15 07:21:22 51°12.743 2°34.758 9.459124 3.622303 33.419305 61.682272
2004-04-15 07:21:27 51°12.731 2°34.734 9.458793 3.623146 33.424908 60.266477
2004-04-15 07:21:31 51°12.722 2°34.716 9.459786 3.623251 33.423703 58.547298
2004-04-15 07:21:37 51°12.708 2°34.689 9.459786 3.623883 33.43019 57.333759
2004-04-15 07:21:41 51°12.699 2°34.67 9.460921 3.624621 33.437759 55.951674
2004-04-15 07:21:46 51°12.687 2°34.647 9.460921 3.624621 33.437759 55.951674
2004-04-15 07:21:51 51°12.676 2°34.625 9.460921 3.625569 33.446729 55.446033
2004-04-15 07:21:56 51°12.664 2°34.602 9.462151 3.626623 33.455254 54.603298
2004-04-15 07:22:02 51°12.65 2°34.574 9.460259 3.627888 33.469756 53.423469
2004-04-15 07:22:07 51°12.639 2°34.552 9.461914 3.629047 33.480889 52.277349
2004-04-15 07:22:12 51°12.627 2°34.53 9.459928 3.631049 33.49991 52.041383
2004-04-15 07:22:16 51°12.616 2°34.513 9.459928 3.631049 33.49991 52.041383
2004-04-15 07:22:21 51°12.603 2°34.493 9.459692 3.632524 33.515052 50.794136
2004-04-15 07:22:26 51°12.59 2°34.473 9.458036 3.634316 33.534968 50.288494
2004-04-15 07:22:31 51°12.576 2°34.453 9.455057 3.636107 33.553358 49.378341
2004-04-15 07:22:36 51°12.563 2°34.434 9.452314 3.63832 33.576843 48.26593
2004-04-15 07:22:42 51°12.547 2°34.411 9.454205 3.640743 33.601729 47.456905
2004-04-15 07:22:47 51°12.533 2°34.392 9.454205 3.640743 33.601729 47.456905
2004-04-15 07:22:51 51°12.522 2°34.377 9.45605 3.642429 33.619809 46.951264
2004-04-15 07:22:56 51°12.509 2°34.358 9.458131 3.644853 33.645467 46.749007
2004-04-15 07:23:02 51°12.492 2°34.335 9.457516 3.646855 33.667568 45.872563
2004-04-15 07:23:07 51°12.479 2°34.316 9.461441 3.649911 33.69973 45.063537
2004-04-15 07:23:11 51°12.468 2°34.301 9.461441 3.649911 33.69973 45.063537
2004-04-15 07:23:16 51°12.455 2°34.281 9.460212 3.65223 33.722011 44.018546
2004-04-15 07:23:21 51°12.441 2°34.262 9.457469 3.653389 33.733921 42.63646
2004-04-15 07:23:27 51°12.425 2°34.239 9.457753 3.654864 33.746771 41.153247
2004-04-15 07:23:31 51°12.415 2°34.224 9.458273 3.656339 33.761931 40.209383
2004-04-15 07:23:36 51°12.401 2°34.205 9.458415 3.658131 33.778799 38.962136
2004-04-15 07:23:41 51°12.387 2°34.186 9.458415 3.658131 33.778799 38.962136
2004-04-15 07:23:46 51°12.374 2°34.167 9.457327 3.659395 33.792564 38.186819
2004-04-15 07:23:51 51°12.361 2°34.147 9.457043 3.660238 33.801999 37.344084
2004-04-15 07:23:56 51°12.348 2°34.128 9.458509 3.661081 33.812205 37.141828
2004-04-15 07:24:02 51°12.332 2°34.105 9.461962 3.66203 33.820411 36.501349
2004-04-15 07:24:07 51°12.318 2°34.086 9.462813 3.662978 33.830159 36.130546
2004-04-15 07:24:11 51°12.308 2°34.07 9.462813 3.662978 33.830159 36.130546
2004-04-15 07:24:16 51°12.295 2°34.051 9.464184 3.663927 33.839908 35.928289
2004-04-15 07:24:21 51°12.282 2°34.032 9.463806 3.665191 33.852134 34.984426
2004-04-15 07:24:26 51°12.268 2°34.012 9.465839 3.666245 33.861423 35.018136
2004-04-15 07:24:31 51°12.255 2°33.993 9.468818 3.666456 33.863589 34.78217
2004-04-15 07:24:37 51°12.239 2°33.97 9.47019 3.667193 33.869628 33.770888
2004-04-15 07:24:41 51°12.228 2°33.955 9.470237 3.668352 33.879999 33.568631
2004-04-15 07:24:46 51°12.215 2°33.936 9.470237 3.668352 33.879999 33.568631
2004-04-15 07:24:51 51°12.202 2°33.916 9.472223 3.669196 33.888665 32.725896
2004-04-15 07:24:56 51°12.188 2°33.897 9.471183 3.669406 33.888513 32.253965
2004-04-15 07:25:02 51°12.173 2°33.874 9.471797 3.670144 33.893778 31.647195
2004-04-15 07:25:07 51°12.159 2°33.855 9.472648 3.670671 33.899194 30.737042
2004-04-15 07:25:11 51°12.149 2°33.839 9.47123 3.671303 33.90492 30.534785
2004-04-15 07:25:16 51°12.135 2°33.82 9.47123 3.671303 33.90492 30.534785
2004-04-15 07:25:21 51°12.122 2°33.801 9.471041 3.671935 33.912193 30.163982
2004-04-15 07:25:26 51°12.108 2°33.782 9.469528 3.672884 33.921169 29.658341
2004-04-15 07:25:31 51°12.095 2°33.762 9.469338 3.673727 33.926742 29.69205
2004-04-15 07:25:36 51°12.082 2°33.743 9.467542 3.674359 33.934788 29.523503
2004-04-15 07:25:41 51°12.068 2°33.724 9.465556 3.675202 33.944229 29.186409
2004-04-15 07:25:46 51°12.055 2°33.705 9.465556 3.675202 33.944229 29.186409
2004-04-15 07:25:51 51°12.042 2°33.685 9.460212 3.675834 33.951503 28.916734
2004-04-15 07:25:56 51°12.029 2°33.666 9.459833 3.676783 33.962029 28.680768
2004-04-15 07:26:02 51°12.014 2°33.644 9.457942 3.677626 33.970697 29.017862
2004-04-15 07:26:07 51°12.002 2°33.627 9.455577 3.678153 33.978438 29.456084
2004-04-15 07:26:11 51°11.993 2°33.615 9.453023 3.680155 34.000579 29.287537
2004-04-15 07:26:16 51°11.983 2°33.601 9.453023 3.680155 34.000579 29.287537
2004-04-15 07:26:22 51°11.971 2°33.588 9.449097 3.680787 34.009408 29.759469
2004-04-15 07:26:27 51°11.961 2°33.578 9.447111 3.681947 34.023659 29.590922
2004-04-15 07:26:31 51°11.953 2°33.572 9.446827 3.68142 34.020566 30.163982
2004-04-15 07:26:36 51°11.944 2°33.565 9.444272 3.682263 34.030015 30.433657
2004-04-15 07:26:41 51°11.935 2°33.56 9.444272 3.682263 34.030015 30.433657
2004-04-15 07:26:47 51°11.925 2°33.555 9.444462 3.683001 34.039933 30.770751
2004-04-15 07:26:51 51°11.918 2°33.552 9.443421 3.683317 34.048622 30.602204
2004-04-15 07:26:57 51°11.909 2°33.548 9.442569 3.684054 34.05699 30.973007
2004-04-15 07:27:01 51°11.903 2°33.546 9.443563 3.684581 34.063967 30.635913
2004-04-15 07:27:06 51°11.896 2°33.543 9.445833 3.685003 34.06986 30.737042
2004-04-15 07:27:11 51°11.889 2°33.541 9.446685 3.685214 34.072807 30.467366
2004-04-15 07:27:16 51°11.882 2°33.538 9.446685 3.685214 34.072807 30.467366
2004-04-15 07:27:21 51°11.876 2°33.536 9.451935 3.686057 34.079152 30.366238
2004-04-15 07:27:27 51°11.868 2°33.533 9.450753 3.686162 34.082569 29.422375
2004-04-15 07:27:31 51°11.864 2°33.531 9.45028 3.686478 34.085046 28.512221
2004-04-15 07:27:36 51°11.858 2°33.528 9.451746 3.6869 34.08783 28.073999
2004-04-15 07:27:42 51°11.852 2°33.524 9.451746 3.6869 34.08783 28.073999
2004-04-15 07:27:45 51°11.849 2°33.522 9.447915 3.687216 34.088751 27.703195
2004-04-15 07:27:51 51°11.843 2°33.518 9.449807 3.687637 34.091534 26.961589
2004-04-15 07:27:56 51°11.838 2°33.515 9.451036 3.687954 34.09401 26.388529
2004-04-15 07:28:02 51°11.833 2°33.511 9.450232 3.688164 34.096179 25.950306
2004-04-15 07:28:07 51°11.828 2°33.508 9.446165 3.688375 34.099904 25.680631
2004-04-15 07:28:11 51°11.825 2°33.506 9.446165 3.689113 34.107497 25.2087
2004-04-15 07:28:16 51°11.821 2°33.503 9.446165 3.689113 34.107497 25.2087
2004-04-15 07:28:22 51°11.815 2°33.5 9.446401 3.688797 34.104243 25.242409
2004-04-15 07:28:27 51°11.811 2°33.498 9.445597 3.688481 34.100989 25.377247
2004-04-15 07:28:31 51°11.808 2°33.497 9.446165 3.688902 34.106106 26.017725
2004-04-15 07:28:36 51°11.804 2°33.495 9.447867 3.689534 34.113392 26.253691
2004-04-15 07:28:42 51°11.799 2°33.493 9.448199 3.68964 34.116034 27.096426
2004-04-15 07:28:47 51°11.795 2°33.492 9.448199 3.68964 34.116034 27.096426
2004-04-15 07:28:51 51°11.792 2°33.491 9.44834 3.689534 34.115727 27.568358
2004-04-15 07:28:56 51°11.788 2°33.49 9.451888 3.689429 34.114642 27.568358
2004-04-15 07:29:01 51°11.784 2°33.489 9.452124 3.689851 34.11976 27.905452
2004-04-15 07:29:07 51°11.779 2°33.488 9.453732 3.689324 34.112779 28.073999
2004-04-15 07:29:11 51°11.776 2°33.487 9.453732 3.689324 34.112779 28.073999
2004-04-15 07:29:16 51°11.773 2°33.486 9.453591 3.689956 34.11851 27.905452
2004-04-15 07:29:21 51°11.769 2°33.485 9.457043 3.690272 34.119429 27.770614
2004-04-15 07:29:26 51°11.765 2°33.484 9.456381 3.690483 34.12082 27.602067
2004-04-15 07:29:31 51°11.761 2°33.483 9.45884 3.690377 34.120514 27.972871
2004-04-15 07:29:36 51°11.758 2°33.483 9.45955 3.690904 34.123603 28.073999
2004-04-15 07:29:41 51°11.754 2°33.482 9.45955 3.690904 34.123603 28.073999
2004-04-15 07:29:47 51°11.75 2°33.481 9.457942 3.69101 34.123131 28.00658
2004-04-15 07:29:51 51°11.747 2°33.48 9.459881 3.691326 34.127163 28.276255
2004-04-15 07:29:56 51°11.744 2°33.479 9.458367 3.691537 34.126997 28.343674
2004-04-15 07:30:02 51°11.739 2°33.478 9.45709 3.691642 34.128082 28.242546
2004-04-15 07:30:07 51°11.736 2°33.477 9.457658 3.691537 34.126219 28.309965
2004-04-15 07:30:11 51°11.733 2°33.476 9.458604 3.692064 34.130085 28.040289
2004-04-15 07:30:16 51°11.729 2°33.475 9.458604 3.692064 34.130085 28.040289
2004-04-15 07:30:22 51°11.725 2°33.474 9.456712 3.691747 34.126831 27.838033
2004-04-15 07:30:27 51°11.721 2°33.473 9.458746 3.692485 34.134424 28.276255
2004-04-15 07:30:31 51°11.718 2°33.471 9.456145 3.69238 34.133339 28.276255
2004-04-15 07:30:36 51°11.714 2°33.47 9.456428 3.692907 34.139541 28.54593
2004-04-15 07:30:42 51°11.71 2°33.467 9.456428 3.692907 34.139541 28.54593
2004-04-15 07:30:47 51°11.706 2°33.465 9.455482 3.692169 34.131948 28.141418
2004-04-15 07:30:51 51°11.703 2°33.463 9.45605 3.692274 34.132255 28.343674
2004-04-15 07:30:56 51°11.699 2°33.461 9.455246 3.693012 34.142183 28.680768
2004-04-15 07:31:01 51°11.695 2°33.459 9.455435 3.692801 34.139235 28.680768
2004-04-15 07:31:07 51°11.69 2°33.455 9.454253 3.693012 34.141404 28.781896
2004-04-15 07:31:11 51°11.687 2°33.453 9.454253 3.693012 34.141404 28.781896
2004-04-15 07:31:16 51°11.683 2°33.45 9.454726 3.693434 34.147301 28.883024
2004-04-15 07:31:21 51°11.679 2°33.447 9.451178 3.693434 34.146522 29.253828
2004-04-15 07:31:27 51°11.675 2°33.443 9.451415 3.693434 34.147301 28.815606
2004-04-15 07:31:31 51°11.672 2°33.44 9.449523 3.693539 34.149165 28.714477
2004-04-15 07:31:37 51°11.668 2°33.435 9.447536 3.693644 34.148691 28.781896
2004-04-15 07:31:41 51°11.665 2°33.432 9.447536 3.693644 34.148691 28.781896
2004-04-15 07:31:46 51°11.662 2°33.428 9.446732 3.693855 34.153198 29.1527
2004-04-15 07:31:51 51°11.658 2°33.423 9.446306 3.693855 34.154756 29.186409
2004-04-15 07:31:56 51°11.655 2°33.419 9.444887 3.694487 34.162824 28.714477
2004-04-15 07:32:02 51°11.651 2°33.413 9.444178 3.694487 34.162045 29.085281
2004-04-15 07:32:07 51°11.647 2°33.408 9.441387 3.694698 34.164994 29.489794
2004-04-15 07:32:11 51°11.645 2°33.405 9.443941 3.694804 34.167638 29.186409
2004-04-15 07:32:16 51°11.642 2°33.399 9.443941 3.694804 34.167638 29.186409
2004-04-15 07:32:21 51°11.639 2°33.394 9.439542 3.695014 34.169808 29.321247
2004-04-15 07:32:26 51°11.636 2°33.389 9.43694 3.69512 34.173232 29.354956
2004-04-15 07:32:31 51°11.633 2°33.384 9.434338 3.695225 34.175097 29.759469
2004-04-15 07:32:37 51°11.63 2°33.377 9.435568 3.694698 34.17279 30.062853
2004-04-15 07:32:41 51°11.628 2°33.372 9.433628 3.695436 34.179607 29.826888
2004-04-15 07:32:46 51°11.625 2°33.366 9.433628 3.695436 34.179607 29.826888
2004-04-15 07:32:51 51°11.623 2°33.361 9.433912 3.695647 34.183337 30.602204
2004-04-15 07:32:56 51°11.62 2°33.355 9.43079 3.695541 34.185373 30.568494
2004-04-15 07:33:02 51°11.617 2°33.348 9.431168 3.695436 34.185847 30.83817
2004-04-15 07:33:07 51°11.615 2°33.342 9.432871 3.695752 34.188324 31.107845
2004-04-15 07:33:12 51°11.612 2°33.337 9.431357 3.696068 34.193141 30.737042
2004-04-15 07:33:16 51°11.61 2°33.332 9.431357 3.696068 34.193141 30.737042
2004-04-15 07:33:21 51°11.608 2°33.326 9.430269 3.696174 34.196568 30.467366
2004-04-15 07:33:27 51°11.605 2°33.319 9.431215 3.696385 34.198739 30.80446
2004-04-15 07:33:31 51°11.603 2°33.315 9.431026 3.696279 34.197653 31.107845
2004-04-15 07:33:36 51°11.601 2°33.309 9.428802 3.696385 34.198739 31.478648
2004-04-15 07:33:41 51°11.599 2°33.303 9.428802 3.696385 34.198739 31.478648
2004-04-15 07:33:47 51°11.596 2°33.295 9.428802 3.696385 34.2003 31.074136
2004-04-15 07:33:51 51°11.595 2°33.29 9.423881 3.696806 34.203862 31.242683